Observation data for McCamey on 02/22/2019      Previous  Date  Next       Current Mesonet Observations  Soil Data  Daily Summary Page  Observations in Plain Language
KMC4 220600Z 11010KT 11/02 A2984 RMK A01 T01060021  RH  056%=      5-min Rain = 0
KMC4 220601Z 11010KT 11/02 A2984 RMK A01 T01060021  RH  055%=      5-min Rain = 0
KMC4 220602Z 11010KT 11/02 A2984 RMK A01 T01070021  RH  055%=      5-min Rain = 0
KMC4 220603Z 11008KT 11/02 A2984 RMK A01 T01070021  RH  055%=      5-min Rain = 0
KMC4 220604Z 11008KT 11/02 A2984 RMK A01 T01070021  RH  055%=      5-min Rain = 0
KMC4 220605Z 10012KT 11/02 A2984 RMK A01 T01070020  RH  055%=      5-min Rain = 0
KMC4 220606Z 11009KT 11/02 A2984 RMK A01 T01060020  RH  055%=      5-min Rain = 0
KMC4 220607Z 11010KT 11/02 A2984 RMK A01 T01060020  RH  055%=      5-min Rain = 0
KMC4 220608Z 10010KT 11/02 A2984 RMK A01 T01060020  RH  055%=      5-min Rain = 0
KMC4 220609Z 11009G15KT 11/02 A2984 RMK A01 T01060020  RH  055%=      5-min Rain = 0
KMC4 220610Z 10008KT 11/02 A2984 RMK A01 T01060020  RH  055%=      5-min Rain = 0
KMC4 220611Z 10009KT 11/02 A2984 RMK A01 T01060019  RH  055%=      5-min Rain = 0
KMC4 220612Z 11009KT 11/02 A2984 RMK A01 T01060020  RH  055%=      5-min Rain = 0
KMC4 220613Z 11009KT 11/02 A2984 RMK A01 T01050020  RH  055%=      5-min Rain = 0
KMC4 220614Z 11008KT 11/02 A2984 RMK A01 T01050019  RH  055%=      5-min Rain = 0
KMC4 220615Z 11010KT 11/02 A2984 RMK A01 T01050019  RH  055%=      5-min Rain = 0
KMC4 220616Z 11009KT 11/02 A2984 RMK A01 T01050019  RH  055%=      5-min Rain = 0
KMC4 220617Z 12009KT 11/02 A2984 RMK A01 T01050019  RH  055%=      5-min Rain = 0
KMC4 220618Z 11010KT 10/02 A2984 RMK A01 T01040019  RH  055%=      5-min Rain = 0
KMC4 220619Z 11009KT 11/02 A2984 RMK A01 T01050019  RH  055%=      5-min Rain = 0
KMC4 220620Z 11008KT 11/02 A2984 RMK A01 T01050019  RH  055%=      5-min Rain = 0
KMC4 220621Z 11009KT 11/02 A2984 RMK A01 T01050018  RH  055%=      5-min Rain = 0
KMC4 220622Z 11008KT 10/02 A2984 RMK A01 T01040019  RH  055%=      5-min Rain = 0
KMC4 220623Z 11008KT 10/02 A2984 RMK A01 T01040018  RH  055%=      5-min Rain = 0
KMC4 220624Z 11009KT 10/02 A2984 RMK A01 T01030018  RH  056%=      5-min Rain = 0
KMC4 220625Z 11008KT 10/02 A2984 RMK A01 T01020018  RH  056%=      5-min Rain = 0
KMC4 220626Z 11010KT 10/02 A2984 RMK A01 T01020018  RH  056%=      5-min Rain = 0
KMC4 220627Z 12008KT 10/02 A2984 RMK A01 T01020018  RH  056%=      5-min Rain = 0
KMC4 220628Z 12009KT 10/02 A2984 RMK A01 T01020018  RH  056%=      5-min Rain = 0
KMC4 220629Z 12008KT 10/02 A2984 RMK A01 T01020018  RH  056%=      5-min Rain = 0
KMC4 220630Z 12010KT 10/02 A2984 RMK A01 T01010018  RH  056%=      5-min Rain = 0
KMC4 220631Z 12010KT 10/02 A2984 RMK A01 T01010018  RH  056%=      5-min Rain = 0
KMC4 220632Z 12009KT 10/02 A2984 RMK A01 T01010018  RH  056%=      5-min Rain = 0
KMC4 220633Z 12010KT 10/02 A2984 RMK A01 T01000018  RH  057%=      5-min Rain = 0
KMC4 220634Z 12010KT 10/02 A2984 RMK A01 T01000018  RH  057%=      5-min Rain = 0
KMC4 220635Z 12010KT 10/02 A2984 RMK A01 T01000018  RH  057%=      5-min Rain = 0
KMC4 220636Z 12012KT 10/02 A2984 RMK A01 T01000018  RH  057%=      5-min Rain = 0
KMC4 220637Z 13010KT 10/02 A2984 RMK A01 T01000018  RH  056%=      5-min Rain = 0
KMC4 220638Z 12010KT 10/02 A2984 RMK A01 T01000018  RH  057%=      5-min Rain = 0
KMC4 220639Z 12011KT 10/02 A2984 RMK A01 T01000018  RH  057%=      5-min Rain = 0
KMC4 220640Z 12014KT 10/02 A2984 RMK A01 T01000018  RH  057%=      5-min Rain = 0
KMC4 220641Z 12014KT 10/02 A2984 RMK A01 T01000018  RH  057%=      5-min Rain = 0
KMC4 220642Z 12012KT 10/02 A2984 RMK A01 T01010019  RH  057%=      5-min Rain = 0
KMC4 220643Z 12012KT 10/02 A2984 RMK A01 T01010019  RH  057%=      5-min Rain = 0
KMC4 220644Z 13013KT 10/02 A2984 RMK A01 T01010019  RH  057%=      5-min Rain = 0
KMC4 220645Z 12012KT 10/02 A2984 RMK A01 T01010019  RH  057%=      5-min Rain = 0
KMC4 220646Z 13011KT 10/02 A2984 RMK A01 T01010019  RH  057%=      5-min Rain = 0
KMC4 220647Z 13013KT 10/02 A2984 RMK A01 T01010019  RH  057%=      5-min Rain = 0
KMC4 220648Z 13013KT 10/02 A2983 RMK A01 T01000019  RH  057%=      5-min Rain = 0
KMC4 220649Z 13013KT 10/02 A2983 RMK A01 T01000019  RH  057%=      5-min Rain = 0
KMC4 220650Z 13014KT 10/02 A2983 RMK A01 T01000019  RH  057%=      5-min Rain = 0
KMC4 220651Z 13014KT 10/02 A2983 RMK A01 T01000020  RH  058%=      5-min Rain = 0
KMC4 220652Z 13014KT 10/02 A2983 RMK A01 T00990020  RH  058%=      5-min Rain = 0
KMC4 220653Z 13014KT 10/02 A2983 RMK A01 T00990020  RH  058%=      5-min Rain = 0
KMC4 220654Z 13015KT 10/02 A2983 RMK A01 T00990020  RH  058%=      5-min Rain = 0
KMC4 220655Z 13015KT 10/02 A2983 RMK A01 T00990020  RH  058%=      5-min Rain = 0
KMC4 220656Z 13015KT 10/02 A2983 RMK A01 T00990020  RH  058%=      5-min Rain = 0
KMC4 220657Z 13016KT 10/02 A2983 RMK A01 T00990020  RH  058%=      5-min Rain = 0
KMC4 220658Z 13016KT 10/02 A2983 RMK A01 T00990021  RH  058%=      5-min Rain = 0
KMC4 220659Z 13018KT 10/02 A2982 RMK A01 T00990021  RH  058%=      5-min Rain = 0
KMC4 220700Z 13019KT 10/02 A2982 RMK A01 T00990021  RH  058%=      5-min Rain = 0
KMC4 220701Z 13016KT 10/02 A2982 RMK A01 T01000022  RH  058%=      5-min Rain = 0
KMC4 220702Z 13016KT 10/02 A2982 RMK A01 T01000022  RH  058%=      5-min Rain = 0
KMC4 220703Z 13014KT 10/02 A2982 RMK A01 T01000022  RH  058%=      5-min Rain = 0
KMC4 220704Z 13016KT 10/02 A2982 RMK A01 T00990022  RH  059%=      5-min Rain = 0
KMC4 220705Z 13019KT 10/02 A2982 RMK A01 T00990022  RH  059%=      5-min Rain = 0
KMC4 220706Z 13018G23KT 10/02 A2982 RMK A01 T00990023  RH  059%=      5-min Rain = 0
KMC4 220707Z 13017KT 10/02 A2982 RMK A01 T01000024  RH  059%=      5-min Rain = 0
KMC4 220708Z 12015KT 10/02 A2982 RMK A01 T01000023  RH  059%=      5-min Rain = 0
KMC4 220709Z 12016KT 10/02 A2982 RMK A01 T00990023  RH  059%=      5-min Rain = 0
KMC4 220710Z 12014KT 10/02 A2982 RMK A01 T00990023  RH  059%=      5-min Rain = 0
KMC4 220711Z 13014KT 10/02 A2982 RMK A01 T00980023  RH  060%=      5-min Rain = 0
KMC4 220712Z 12015KT 10/02 A2982 RMK A01 T00980023  RH  060%=      5-min Rain = 0
KMC4 220713Z 13016KT 10/02 A2982 RMK A01 T00970024  RH  060%=      5-min Rain = 0
KMC4 220714Z 12015KT 10/02 A2982 RMK A01 T00970024  RH  060%=      5-min Rain = 0
KMC4 220715Z 12015KT 10/02 A2982 RMK A01 T00970024  RH  060%=      5-min Rain = 0
KMC4 220721Z 12013KT 10/03 A2982 RMK A01 T00970026  RH  061%=      5-min Rain = 0
KMC4 220722Z 11012KT 10/03 A2982 RMK A01 T00970026  RH  061%=      5-min Rain = 0
KMC4 220723Z 11010G15KT 10/03 A2982 RMK A01 T00970026  RH  061%=      5-min Rain = 0
KMC4 220724Z 11013KT 10/03 A2982 RMK A01 T00970027  RH  061%=      5-min Rain = 0
KMC4 220725Z 12012KT 10/03 A2982 RMK A01 T00980027  RH  061%=      5-min Rain = 0
KMC4 220726Z 11011KT 10/03 A2982 RMK A01 T00980027  RH  061%=      5-min Rain = 0
KMC4 220727Z 11011KT 10/03 A2983 RMK A01 T00980028  RH  062%=      5-min Rain = 0
KMC4 220728Z 11010KT 10/03 A2982 RMK A01 T00980028  RH  062%=      5-min Rain = 0
KMC4 220729Z 11011KT 10/03 A2983 RMK A01 T00970028  RH  062%=      5-min Rain = 0
KMC4 220730Z 11013KT 10/03 A2983 RMK A01 T00970028  RH  062%=      5-min Rain = 0
KMC4 220731Z 11012KT 10/03 A2982 RMK A01 T00970029  RH  062%=      5-min Rain = 0
KMC4 220732Z 11012G17KT 10/03 A2982 RMK A01 T00970029  RH  062%=      5-min Rain = 0
KMC4 220733Z 11013KT 10/03 A2982 RMK A01 T00970029  RH  062%=      5-min Rain = 0
KMC4 220734Z 10012KT 10/03 A2982 RMK A01 T00970029  RH  062%=      5-min Rain = 0
KMC4 220735Z 10011KT 10/03 A2982 RMK A01 T00970029  RH  063%=      5-min Rain = 0
KMC4 220736Z 10013G18KT 10/03 A2982 RMK A01 T00970029  RH  063%=      5-min Rain = 0
KMC4 220737Z 10011KT 10/03 A2982 RMK A01 T00970030  RH  063%=      5-min Rain = 0
KMC4 220738Z 10011KT 10/03 A2982 RMK A01 T00960030  RH  063%=      5-min Rain = 0
KMC4 220739Z 09011KT 10/03 A2982 RMK A01 T00960030  RH  063%=      5-min Rain = 0
KMC4 220740Z 09012KT 10/03 A2982 RMK A01 T00960030  RH  063%=      5-min Rain = 0
KMC4 220741Z 09013KT 10/03 A2982 RMK A01 T00960031  RH  064%=      5-min Rain = 0
KMC4 220742Z 09012KT 10/03 A2982 RMK A01 T00960031  RH  064%=      5-min Rain = 0
KMC4 220743Z 09012KT 10/03 A2982 RMK A01 T00960031  RH  064%=      5-min Rain = 0
KMC4 220744Z 10012KT 10/03 A2982 RMK A01 T00960031  RH  064%=      5-min Rain = 0
KMC4 220745Z 10011KT 10/03 A2982 RMK A01 T00960032  RH  064%=      5-min Rain = 0
KMC4 220746Z 09012KT 10/03 A2982 RMK A01 T00950032  RH  065%=      5-min Rain = 0
KMC4 220747Z 09012KT 10/03 A2982 RMK A01 T00960032  RH  065%=      5-min Rain = 0
KMC4 220748Z 10011KT 10/03 A2982 RMK A01 T00960033  RH  065%=      5-min Rain = 0
KMC4 220749Z 09011KT 10/03 A2982 RMK A01 T00960033  RH  065%=      5-min Rain = 0
KMC4 220750Z 10010KT 10/03 A2983 RMK A01 T00960033  RH  065%=      5-min Rain = 0
KMC4 220751Z 10010KT 10/03 A2982 RMK A01 T00960033  RH  065%=      5-min Rain = 0
KMC4 220752Z 10012KT 10/03 A2982 RMK A01 T00960033  RH  065%=      5-min Rain = 0
KMC4 220753Z 11010KT 10/03 A2982 RMK A01 T00960034  RH  065%=      5-min Rain = 0
KMC4 220754Z 10010KT 10/03 A2983 RMK A01 T00960034  RH  065%=      5-min Rain = 0
KMC4 220755Z 11010KT 10/03 A2983 RMK A01 T00960034  RH  065%=      5-min Rain = 0
KMC4 220756Z 11011KT 10/03 A2982 RMK A01 T00950034  RH  066%=      5-min Rain = 0
KMC4 220757Z 10010KT 10/03 A2982 RMK A01 T00950034  RH  066%=      5-min Rain = 0
KMC4 220758Z 11009KT 10/03 A2983 RMK A01 T00950034  RH  066%=      5-min Rain = 0
KMC4 220759Z 11009KT 10/03 A2983 RMK A01 T00950034  RH  066%=      5-min Rain = 0
KMC4 220800Z 11010KT 10/04 A2983 RMK A01 T00950035  RH  066%=      5-min Rain = 0
KMC4 220801Z 11012KT 10/04 A2983 RMK A01 T00950036  RH  066%=      5-min Rain = 0
KMC4 220802Z 11010KT 10/04 A2982 RMK A01 T00950036  RH  066%=      5-min Rain = 0
KMC4 220803Z 11010KT 10/04 A2982 RMK A01 T00950036  RH  066%=      5-min Rain = 0
KMC4 220804Z 11010KT 10/04 A2983 RMK A01 T00950036  RH  067%=      5-min Rain = 0
KMC4 220805Z 11012G17KT 10/04 A2983 RMK A01 T00950036  RH  067%=      5-min Rain = 0
KMC4 220806Z 11012KT 10/04 A2983 RMK A01 T00950037  RH  067%=      5-min Rain = 0
KMC4 220807Z 11011KT 10/04 A2983 RMK A01 T00960039  RH  068%=      5-min Rain = 0
KMC4 220808Z 12011KT 10/04 A2983 RMK A01 T00970040  RH  068%=      5-min Rain = 0
KMC4 220809Z 12012KT 10/04 A2983 RMK A01 T00970040  RH  068%=      5-min Rain = 0
KMC4 220810Z 12010KT 10/04 A2983 RMK A01 T00970039  RH  068%=      5-min Rain = 0
KMC4 220811Z 11008KT 10/04 A2983 RMK A01 T00970040  RH  068%=      5-min Rain = 0
KMC4 220812Z 11009KT 10/04 A2983 RMK A01 T00970040  RH  068%=      5-min Rain = 0
KMC4 220813Z 12009KT 10/04 A2983 RMK A01 T00960040  RH  068%=      5-min Rain = 0
KMC4 220814Z 12011KT 10/04 A2982 RMK A01 T00950041  RH  069%=      5-min Rain = 0
KMC4 220815Z 12011KT 10/04 A2983 RMK A01 T00950042  RH  069%=      5-min Rain = 0
KMC4 220816Z 12009KT 10/04 A2983 RMK A01 T00960042  RH  069%=      5-min Rain = 0
KMC4 220817Z 11011KT 10/04 A2983 RMK A01 T00960042  RH  069%=      5-min Rain = 0
KMC4 220818Z 12011KT 10/04 A2983 RMK A01 T00960043  RH  070%=      5-min Rain = 0
KMC4 220819Z 13011KT 10/04 A2983 RMK A01 T00950042  RH  070%=      5-min Rain = 0
KMC4 220820Z 13012KT 10/04 A2983 RMK A01 T00950043  RH  070%=      5-min Rain = 0
KMC4 220821Z 13012KT 10/05 A2983 RMK A01 T00960045  RH  071%=      5-min Rain = 0
KMC4 220822Z 13009KT 10/05 A2983 RMK A01 T00960045  RH  071%=      5-min Rain = 0
KMC4 220823Z 13008KT 10/05 A2983 RMK A01 T00960045  RH  070%=      5-min Rain = 0
KMC4 220824Z 12008KT 10/05 A2983 RMK A01 T00960045  RH  070%=      5-min Rain = 0
KMC4 220825Z 13009KT 10/05 A2983 RMK A01 T00960045  RH  070%=      5-min Rain = 0
KMC4 220826Z 12006KT 10/05 A2983 RMK A01 T00960045  RH  071%=      5-min Rain = 0
KMC4 220827Z 12006KT 10/05 A2983 RMK A01 T00950045  RH  071%=      5-min Rain = 0
KMC4 220828Z 13007KT 10/05 A2984 RMK A01 T00950046  RH  071%=      5-min Rain = 0
KMC4 220829Z 12007KT 10/05 A2984 RMK A01 T00950046  RH  071%=      5-min Rain = 0
KMC4 220830Z 12006KT 10/05 A2984 RMK A01 T00950046  RH  072%=      5-min Rain = 0
KMC4 220831Z 12005G10KT 10/05 A2984 RMK A01 T00950046  RH  072%=      5-min Rain = 0
KMC4 220832Z 12006KT 10/05 A2984 RMK A01 T00950047  RH  072%=      5-min Rain = 0
KMC4 220833Z 10007KT 10/05 A2984 RMK A01 T00950047  RH  072%=      5-min Rain = 0
KMC4 220834Z 11008KT 10/05 A2984 RMK A01 T00950048  RH  072%=      5-min Rain = 0
KMC4 220835Z 11006KT 10/05 A2984 RMK A01 T00960048  RH  072%=      5-min Rain = 0
KMC4 220836Z 12007KT 10/05 A2984 RMK A01 T00960048  RH  072%=      5-min Rain = 0
KMC4 220837Z 11008KT 10/05 A2984 RMK A01 T00960049  RH  072%=      5-min Rain = 0
KMC4 220838Z 11008KT 10/05 A2984 RMK A01 T00960049  RH  073%=      5-min Rain = 0
KMC4 220839Z 13009KT 10/05 A2984 RMK A01 T00960050  RH  073%=      5-min Rain = 0
KMC4 220840Z 13008KT 10/05 A2984 RMK A01 T00960050  RH  073%=      5-min Rain = 0
KMC4 220841Z 12006KT 10/05 A2984 RMK A01 T00960051  RH  073%=      5-min Rain = 0
KMC4 220842Z 12007KT 10/05 A2983 RMK A01 T00960051  RH  073%=      5-min Rain = 0
KMC4 220843Z 11006KT 10/05 A2984 RMK A01 T00960051  RH  073%=      5-min Rain = 0
KMC4 220844Z 11007KT 10/05 A2984 RMK A01 T00960051  RH  073%=      5-min Rain = 0
KMC4 220845Z 11006KT 10/05 A2984 RMK A01 T00970052  RH  074%=      5-min Rain = 0
KMC4 220846Z 10006KT 10/05 A2984 RMK A01 T00960052  RH  074%=      5-min Rain = 0
KMC4 220847Z 11005KT 10/05 A2984 RMK A01 T00960052  RH  074%=      5-min Rain = 0
KMC4 220848Z 10007KT 10/05 A2984 RMK A01 T00960052  RH  074%=      5-min Rain = 0
KMC4 220849Z 11007KT 10/05 A2984 RMK A01 T00960052  RH  074%=      5-min Rain = 0
KMC4 220850Z 11007KT 10/05 A2984 RMK A01 T00960052  RH  074%=      5-min Rain = 0
KMC4 220851Z 10007KT 10/05 A2984 RMK A01 T00970053  RH  074%=      5-min Rain = 0
KMC4 220852Z 10007KT 10/05 A2984 RMK A01 T00960053  RH  074%=      5-min Rain = 0
KMC4 220853Z 10008KT 10/05 A2984 RMK A01 T00960053  RH  074%=      5-min Rain = 0
KMC4 220854Z 11009KT 10/05 A2984 RMK A01 T00960053  RH  074%=      5-min Rain = 0
KMC4 220855Z 11006KT 10/05 A2984 RMK A01 T00960053  RH  074%=      5-min Rain = 0
KMC4 220856Z 11007KT 10/05 A2984 RMK A01 T00960053  RH  075%=      5-min Rain = 0
KMC4 220857Z 11008KT 10/05 A2984 RMK A01 T00950053  RH  075%=      5-min Rain = 0
KMC4 220858Z 10006KT 10/06 A2984 RMK A01 T00960055  RH  075%=      5-min Rain = 0
KMC4 220859Z 10006KT 10/05 A2984 RMK A01 T00960054  RH  075%=      5-min Rain = 0
KMC4 220900Z 10006KT 10/05 A2984 RMK A01 T00960054  RH  075%=      5-min Rain = 0
KMC4 220901Z 09007KT 10/05 A2984 RMK A01 T00950054  RH  076%=      5-min Rain = 0
KMC4 220902Z 09006KT 10/05 A2984 RMK A01 T00950054  RH  076%=      5-min Rain = 0
KMC4 220903Z 10006KT 10/05 A2984 RMK A01 T00950054  RH  076%=      5-min Rain = 0
KMC4 220904Z 11008KT 10/06 A2984 RMK A01 T00950055  RH  076%=      5-min Rain = 0
KMC4 220905Z 09008KT 10/05 A2984 RMK A01 T00950054  RH  076%=      5-min Rain = 0
KMC4 220906Z 09008KT 10/06 A2984 RMK A01 T00950055  RH  076%=      5-min Rain = 0
KMC4 220907Z 09008KT 09/06 A2984 RMK A01 T00940055  RH  076%=      5-min Rain = 0
KMC4 220908Z 09009KT 10/06 A2984 RMK A01 T00950055  RH  076%=      5-min Rain = 0
KMC4 220909Z 09009KT 10/06 A2984 RMK A01 T00950056  RH  077%=      5-min Rain = 0
KMC4 220910Z 10009KT 10/06 A2984 RMK A01 T00950056  RH  077%=      5-min Rain = 0
KMC4 220911Z 10008KT 10/06 A2984 RMK A01 T00950056  RH  077%=      5-min Rain = 0
KMC4 220912Z 09007KT 10/06 A2984 RMK A01 T00960057  RH  077%=      5-min Rain = 0
KMC4 220913Z 09008KT 10/06 A2984 RMK A01 T00950056  RH  077%=      5-min Rain = 0
KMC4 220914Z 09008KT 09/06 A2984 RMK A01 T00940056  RH  077%=      5-min Rain = 0
KMC4 220915Z 09007KT 09/06 A2984 RMK A01 T00940057  RH  078%=      5-min Rain = 0
KMC4 220916Z 09008KT 09/06 A2984 RMK A01 T00940057  RH  078%=      5-min Rain = 0
KMC4 220917Z 10010KT 09/06 A2984 RMK A01 T00940058  RH  078%=      5-min Rain = 0
KMC4 220918Z 11010KT 09/06 A2984 RMK A01 T00940058  RH  078%=      5-min Rain = 0
KMC4 220919Z 11008KT 09/06 A2984 RMK A01 T00940059  RH  078%=      5-min Rain = 0
KMC4 220920Z 12007KT 10/06 A2984 RMK A01 T00950059  RH  078%=      5-min Rain = 0
KMC4 220921Z 11006KT 10/06 A2984 RMK A01 T00950059  RH  078%=      5-min Rain = 0
KMC4 220922Z 11006KT 09/06 A2984 RMK A01 T00940059  RH  078%=      5-min Rain = 0
KMC4 220923Z 11006KT 09/06 A2984 RMK A01 T00940059  RH  079%=      5-min Rain = 0
KMC4 220924Z 12007KT 09/06 A2984 RMK A01 T00940059  RH  079%=      5-min Rain = 0
KMC4 220925Z 13006KT 09/06 A2984 RMK A01 T00940059  RH  079%=      5-min Rain = 0
KMC4 220926Z 12006KT 09/06 A2984 RMK A01 T00940060  RH  079%=      5-min Rain = 0
KMC4 220927Z 12007KT 09/06 A2984 RMK A01 T00940060  RH  079%=      5-min Rain = 0
KMC4 220928Z 13007KT 09/06 A2984 RMK A01 T00930060  RH  080%=      5-min Rain = 0
KMC4 220929Z 13007KT 09/06 A2984 RMK A01 T00930060  RH  080%=      5-min Rain = 0
KMC4 220930Z 13008KT 09/06 A2984 RMK A01 T00930061  RH  080%=      5-min Rain = 0
KMC4 220931Z 14008KT 09/06 A2984 RMK A01 T00920061  RH  081%=      5-min Rain = 0
KMC4 220932Z 13008KT 09/06 A2984 RMK A01 T00920062  RH  081%=      5-min Rain = 0
KMC4 220933Z 13009KT 09/06 A2984 RMK A01 T00920062  RH  081%=      5-min Rain = 0
KMC4 220934Z 14010KT 09/06 A2984 RMK A01 T00920062  RH  082%=      5-min Rain = 0
KMC4 220935Z 14009KT 09/06 A2984 RMK A01 T00920063  RH  082%=      5-min Rain = 0
KMC4 220936Z 14008KT 09/06 A2984 RMK A01 T00920063  RH  082%=      5-min Rain = 0
KMC4 220937Z 14009KT 09/06 A2984 RMK A01 T00920063  RH  082%=      5-min Rain = 0
KMC4 220938Z 14010KT 09/06 A2984 RMK A01 T00920064  RH  083%=      5-min Rain = 0
KMC4 220939Z 13009KT 09/06 A2984 RMK A01 T00920064  RH  083%=      5-min Rain = 0
KMC4 220940Z 14010KT 09/06 A2984 RMK A01 T00910063  RH  083%=      5-min Rain = 0
KMC4 220941Z 14009KT 09/06 A2984 RMK A01 T00910063  RH  083%=      5-min Rain = 0
KMC4 220942Z 14009KT 09/06 A2984 RMK A01 T00900063  RH  083%=      5-min Rain = 0
KMC4 220943Z 14007KT 09/06 A2984 RMK A01 T00900063  RH  083%=      5-min Rain = 0
KMC4 220944Z 14007KT 09/06 A2984 RMK A01 T00890063  RH  083%=      5-min Rain = 0
KMC4 220945Z 14006KT 09/06 A2984 RMK A01 T00890063  RH  084%=      5-min Rain = 0
KMC4 220946Z 15006KT 09/06 A2984 RMK A01 T00880063  RH  084%=      5-min Rain = 0
KMC4 220947Z 15005KT 09/06 A2984 RMK A01 T00890064  RH  084%=      5-min Rain = 0
KMC4 220948Z 16004KT 09/06 A2984 RMK A01 T00890063  RH  084%=      5-min Rain = 0
KMC4 220949Z 17004KT 09/06 A2984 RMK A01 T00880062  RH  084%=      5-min Rain = 0
KMC4 220950Z 16004KT 09/06 A2984 RMK A01 T00870062  RH  084%=      5-min Rain = 0
KMC4 220951Z 15004KT 09/06 A2984 RMK A01 T00870063  RH  085%=      5-min Rain = 0
KMC4 220952Z 14002KT 09/06 A2984 RMK A01 T00870063  RH  085%=      5-min Rain = 0
KMC4 220953Z 15002KT 09/06 A2984 RMK A01 T00870063  RH  085%=      5-min Rain = 0
KMC4 220954Z 14001KT 09/06 A2984 RMK A01 T00870062  RH  084%=      5-min Rain = 0
KMC4 220955Z 13003KT 09/06 A2984 RMK A01 T00860061  RH  084%=      5-min Rain = 0
KMC4 220956Z 13003KT 09/06 A2985 RMK A01 T00860061  RH  085%=      5-min Rain = 0
KMC4 220957Z 15003KT 09/06 A2985 RMK A01 T00850062  RH  086%=      5-min Rain = 0
KMC4 220958Z 14005KT 09/06 A2985 RMK A01 T00860063  RH  086%=      5-min Rain = 0
KMC4 220959Z 14004KT 09/06 A2985 RMK A01 T00860064  RH  086%=      5-min Rain = 0
KMC4 221000Z 15003KT 09/06 A2985 RMK A01 T00860064  RH  086%=      5-min Rain = 0
KMC4 221001Z 14004KT 09/06 A2985 RMK A01 T00870064  RH  086%=      5-min Rain = 0
KMC4 221002Z 14005KT 09/06 A2985 RMK A01 T00870064  RH  086%=      5-min Rain = 0
KMC4 221003Z 14006KT 09/06 A2985 RMK A01 T00870064  RH  086%=      5-min Rain = 0
KMC4 221004Z 14005KT 09/07 A2985 RMK A01 T00870065  RH  086%=      5-min Rain = 0
KMC4 221005Z 14005KT 09/07 A2985 RMK A01 T00870066  RH  087%=      5-min Rain = 0
KMC4 221006Z 13004KT 09/07 A2985 RMK A01 T00880066  RH  086%=      5-min Rain = 0
KMC4 221007Z 12004KT 09/07 A2985 RMK A01 T00880066  RH  086%=      5-min Rain = 0
KMC4 221008Z 13004KT 09/07 A2985 RMK A01 T00880066  RH  086%=      5-min Rain = 0
KMC4 221009Z 13005KT 09/07 A2985 RMK A01 T00880066  RH  086%=      5-min Rain = 0
KMC4 221010Z 14005KT 09/07 A2985 RMK A01 T00880066  RH  086%=      5-min Rain = 0
KMC4 221011Z 14006KT 09/07 A2985 RMK A01 T00880066  RH  086%=      5-min Rain = 0
KMC4 221012Z 14006KT 09/07 A2985 RMK A01 T00880067  RH  086%=      5-min Rain = 0
KMC4 221013Z 13007KT 09/07 A2985 RMK A01 T00880066  RH  087%=      5-min Rain = 0
KMC4 221014Z 14007KT 09/07 A2985 RMK A01 T00880067  RH  087%=      5-min Rain = 0
KMC4 221015Z 14007KT 09/07 A2985 RMK A01 T00880068  RH  087%=      5-min Rain = 0
KMC4 221016Z 13005KT 09/07 A2985 RMK A01 T00880068  RH  087%=      5-min Rain = 0
KMC4 221017Z 13005KT 09/07 A2985 RMK A01 T00880067  RH  087%=      5-min Rain = 0
KMC4 221018Z 14005KT 09/07 A2985 RMK A01 T00880067  RH  087%=      5-min Rain = 0
KMC4 221019Z 13004KT 09/07 A2985 RMK A01 T00880068  RH  087%=      5-min Rain = 0
KMC4 221020Z 13004KT 09/07 A2985 RMK A01 T00880068  RH  087%=      5-min Rain = 0
KMC4 221021Z 11003KT 09/07 A2985 RMK A01 T00880068  RH  087%=      5-min Rain = 0
KMC4 221022Z 09003KT 09/07 A2985 RMK A01 T00880068  RH  088%=      5-min Rain = 0
KMC4 221023Z 08003KT 09/07 A2985 RMK A01 T00880069  RH  088%=      5-min Rain = 0
KMC4 221024Z 07002KT 09/07 A2985 RMK A01 T00890069  RH  088%=      5-min Rain = 0
KMC4 221025Z 07003KT 09/07 A2985 RMK A01 T00890069  RH  087%=      5-min Rain = 0
KMC4 221026Z 05003KT 09/07 A2985 RMK A01 T00900070  RH  087%=      5-min Rain = 0
KMC4 221027Z 05003KT 09/07 A2985 RMK A01 T00900070  RH  087%=      5-min Rain = 0
KMC4 221028Z 03002KT 09/07 A2985 RMK A01 T00900070  RH  087%=      5-min Rain = 0
KMC4 221029Z 03003KT 09/07 A2986 RMK A01 T00900069  RH  087%=      5-min Rain = 0
KMC4 221030Z 03002KT 09/07 A2986 RMK A01 T00900070  RH  087%=      5-min Rain = 0
KMC4 221031Z 10001KT 09/07 A2986 RMK A01 T00900070  RH  087%=      5-min Rain = 0
KMC4 221032Z 11001KT 09/07 A2986 RMK A01 T00910071  RH  087%=      5-min Rain = 0
KMC4 221033Z 12003KT 09/07 A2986 RMK A01 T00910071  RH  087%=      5-min Rain = 0
KMC4 221034Z 14005KT 09/07 A2985 RMK A01 T00920071  RH  087%=      5-min Rain = 0
KMC4 221035Z 14008KT 09/07 A2985 RMK A01 T00910071  RH  087%=      5-min Rain = 0
KMC4 221036Z 14010KT 09/07 A2985 RMK A01 T00920071  RH  087%=      5-min Rain = 0
KMC4 221037Z 14011KT 09/07 A2985 RMK A01 T00920071  RH  087%=      5-min Rain = 0
KMC4 221038Z 14011KT 09/07 A2985 RMK A01 T00910071  RH  087%=      5-min Rain = 0
KMC4 221039Z 14010KT 09/07 A2985 RMK A01 T00910071  RH  087%=      5-min Rain = 0
KMC4 221040Z 15007KT 09/07 A2985 RMK A01 T00910071  RH  087%=      5-min Rain = 0
KMC4 221041Z 15007KT 09/07 A2985 RMK A01 T00910070  RH  087%=      5-min Rain = 0
KMC4 221042Z 18004KT 09/07 A2985 RMK A01 T00910071  RH  088%=      5-min Rain = 0
KMC4 221043Z 20003KT 09/07 A2986 RMK A01 T00910072  RH  088%=      5-min Rain = 0
KMC4 221044Z 16003KT 09/07 A2986 RMK A01 T00910072  RH  088%=      5-min Rain = 0
KMC4 221045Z 22001KT 09/07 A2986 RMK A01 T00920072  RH  088%=      5-min Rain = 0
KMC4 221046Z 18004KT 09/07 A2986 RMK A01 T00920072  RH  087%=      5-min Rain = 0
KMC4 221047Z 18005KT 09/07 A2986 RMK A01 T00920072  RH  087%=      5-min Rain = 0
KMC4 221048Z 17006KT 09/07 A2985 RMK A01 T00930073  RH  087%=      5-min Rain = 0
KMC4 221049Z 16008KT 09/07 A2985 RMK A01 T00940073  RH  087%=      5-min Rain = 0
KMC4 221050Z 16009KT 09/07 A2985 RMK A01 T00940072  RH  087%=      5-min Rain = 0
KMC4 221051Z 15010KT 09/07 A2985 RMK A01 T00930072  RH  087%=      5-min Rain = 0
KMC4 221052Z 16010KT 09/07 A2985 RMK A01 T00920072  RH  087%=      5-min Rain = 0
KMC4 221053Z 15010KT 09/07 A2985 RMK A01 T00910072  RH  087%=      5-min Rain = 0
KMC4 221054Z 15010KT 09/07 A2985 RMK A01 T00910071  RH  088%=      5-min Rain = 0
KMC4 221055Z 16009KT 09/07 A2985 RMK A01 T00900071  RH  088%=      5-min Rain = 0
KMC4 221056Z 15007KT 09/07 A2985 RMK A01 T00900071  RH  088%=      5-min Rain = 0
KMC4 221057Z 15004KT 09/07 A2985 RMK A01 T00900071  RH  088%=      5-min Rain = 0
KMC4 221058Z 14001KT 09/07 A2986 RMK A01 T00890071  RH  088%=      5-min Rain = 0
KMC4 221059Z 34001KT 09/07 A2986 RMK A01 T00880071  RH  089%=      5-min Rain = 0
KMC4 221100Z 33003KT 09/07 A2986 RMK A01 T00880071  RH  089%=      5-min Rain = 0
KMC4 221101Z 33005KT 09/07 A2986 RMK A01 T00880071  RH  089%=      5-min Rain = 0
KMC4 221102Z 32004KT 09/07 A2986 RMK A01 T00880071  RH  089%=      5-min Rain = 0
KMC4 221103Z 32002KT 09/07 A2987 RMK A01 T00880072  RH  090%=      5-min Rain = 0
KMC4 221104Z 30001KT 09/07 A2987 RMK A01 T00900073  RH  090%=      5-min Rain = 0
KMC4 221105Z 19002KT 09/07 A2987 RMK A01 T00900074  RH  089%=      5-min Rain = 0
KMC4 221106Z 16004KT 09/07 A2986 RMK A01 T00910074  RH  089%=      5-min Rain = 0
KMC4 221107Z 16007KT 09/07 A2986 RMK A01 T00920073  RH  088%=      5-min Rain = 0
KMC4 221108Z 16009KT 09/07 A2986 RMK A01 T00930074  RH  088%=      5-min Rain = 0
KMC4 221109Z 16011KT 09/07 A2986 RMK A01 T00930073  RH  088%=      5-min Rain = 0
KMC4 221110Z 16011KT 09/07 A2985 RMK A01 T00930074  RH  088%=      5-min Rain = 0
KMC4 221111Z 16012KT 09/07 A2985 RMK A01 T00930073  RH  088%=      5-min Rain = 0
KMC4 221112Z 15011KT 09/07 A2985 RMK A01 T00930074  RH  088%=      5-min Rain = 0
KMC4 221113Z 15010KT 09/07 A2986 RMK A01 T00930073  RH  088%=      5-min Rain = 0
KMC4 221114Z 15008KT 09/07 A2986 RMK A01 T00930073  RH  088%=      5-min Rain = 0
KMC4 221115Z 15006KT 09/07 A2986 RMK A01 T00920073  RH  088%=      5-min Rain = 0
KMC4 221116Z 16003KT 09/07 A2987 RMK A01 T00920074  RH  088%=      5-min Rain = 0
KMC4 221117Z 19000KT 09/07 A2987 RMK A01 T00920073  RH  088%=      5-min Rain = 0
KMC4 221118Z 31001KT 09/07 A2987 RMK A01 T00920073  RH  088%=      5-min Rain = 0
KMC4 221119Z 33003KT 09/07 A2987 RMK A01 T00920073  RH  088%=      5-min Rain = 0
KMC4 221120Z 36001KT 09/07 A2987 RMK A01 T00920073  RH  088%=      5-min Rain = 0
KMC4 221121Z 35001KT 09/07 A2987 RMK A01 T00920074  RH  088%=      5-min Rain = 0
KMC4 221122Z 13001KT 09/07 A2987 RMK A01 T00920074  RH  088%=      5-min Rain = 0
KMC4 221123Z 13001KT 09/07 A2987 RMK A01 T00920074  RH  088%=      5-min Rain = 0
KMC4 221124Z 13003KT 09/07 A2987 RMK A01 T00920073  RH  088%=      5-min Rain = 0
KMC4 221125Z 13005KT 09/07 A2987 RMK A01 T00920074  RH  088%=      5-min Rain = 0
KMC4 221126Z 13005KT 09/07 A2987 RMK A01 T00920074  RH  088%=      5-min Rain = 0
KMC4 221127Z 13004KT 09/07 A2987 RMK A01 T00920073  RH  088%=      5-min Rain = 0
KMC4 221128Z 13004KT 09/07 A2987 RMK A01 T00920074  RH  088%=      5-min Rain = 0
KMC4 221129Z 14005KT 09/07 A2987 RMK A01 T00920074  RH  088%=      5-min Rain = 0
KMC4 221130Z 12004KT 09/07 A2987 RMK A01 T00920073  RH  088%=      5-min Rain = 0
KMC4 221131Z 14006KT 09/07 A2987 RMK A01 T00910073  RH  088%=      5-min Rain = 0
KMC4 221132Z 12004KT 09/07 A2987 RMK A01 T00910073  RH  089%=      5-min Rain = 0
KMC4 221133Z 13004KT 09/07 A2987 RMK A01 T00910073  RH  089%=      5-min Rain = 0
KMC4 221134Z 12003KT 09/07 A2987 RMK A01 T00910073  RH  089%=      5-min Rain = 0
KMC4 221135Z 11003KT 09/07 A2987 RMK A01 T00910074  RH  089%=      5-min Rain = 0
KMC4 221136Z 13002KT 09/07 A2987 RMK A01 T00910073  RH  089%=      5-min Rain = 0
KMC4 221137Z 12002KT 09/07 A2987 RMK A01 T00910073  RH  089%=      5-min Rain = 0
KMC4 221138Z 14002KT 09/07 A2988 RMK A01 T00910073  RH  089%=      5-min Rain = 0
KMC4 221139Z 14003KT 09/07 A2988 RMK A01 T00910073  RH  089%=      5-min Rain = 0
KMC4 221140Z 15003KT 09/07 A2988 RMK A01 T00910073  RH  089%=      5-min Rain = 0
KMC4 221141Z 16005KT 09/07 A2988 RMK A01 T00910073  RH  089%=      5-min Rain = 0
KMC4 221142Z 15005KT 09/07 A2988 RMK A01 T00910074  RH  089%=      5-min Rain = 0
KMC4 221143Z 16005KT 09/07 A2987 RMK A01 T00920074  RH  089%=      5-min Rain = 0
KMC4 221144Z 16006KT 09/07 A2987 RMK A01 T00910073  RH  088%=      5-min Rain = 0
KMC4 221145Z 17008KT 09/07 A2987 RMK A01 T00910072  RH  088%=      5-min Rain = 0
KMC4 221146Z 17009KT 09/07 A2987 RMK A01 T00900073  RH  089%=      5-min Rain = 0
KMC4 221147Z 16010KT 09/07 A2987 RMK A01 T00910073  RH  089%=      5-min Rain = 0
KMC4 221148Z 16009KT 09/07 A2987 RMK A01 T00910073  RH  089%=      5-min Rain = 0
KMC4 221149Z 16010KT 09/07 A2987 RMK A01 T00910073  RH  089%=      5-min Rain = 0
KMC4 221150Z 16009KT 09/07 A2987 RMK A01 T00910074  RH  089%=      5-min Rain = 0
KMC4 221151Z 16009KT 09/07 A2987 RMK A01 T00900073  RH  089%=      5-min Rain = 0
KMC4 221152Z 16009KT 09/07 A2987 RMK A01 T00900073  RH  089%=      5-min Rain = 0
KMC4 221153Z 15006KT 09/07 A2987 RMK A01 T00900073  RH  089%=      5-min Rain = 0
KMC4 221154Z 14006KT 09/07 A2987 RMK A01 T00900072  RH  089%=      5-min Rain = 0
KMC4 221155Z 13004KT 09/07 A2988 RMK A01 T00890071  RH  089%=      5-min Rain = 0
KMC4 221156Z 11003KT 09/07 A2988 RMK A01 T00880071  RH  089%=      5-min Rain = 0
KMC4 221157Z 08002KT 09/07 A2988 RMK A01 T00870071  RH  089%=      5-min Rain = 0
KMC4 221158Z 05002KT 09/07 A2988 RMK A01 T00870071  RH  090%=      5-min Rain = 0
KMC4 221159Z 03003KT 09/07 A2988 RMK A01 T00860071  RH  090%=      5-min Rain = 0
KMC4 221200Z 04003KT 09/07 A2988 RMK A01 T00870072  RH  091%=      5-min Rain = 0
KMC4 221201Z 04003KT 09/07 A2988 RMK A01 T00880072  RH  090%=      5-min Rain = 0
KMC4 221202Z 05003KT 09/07 A2988 RMK A01 T00880073  RH  090%=      5-min Rain = 0
KMC4 221203Z 04004KT 09/07 A2988 RMK A01 T00880072  RH  090%=      5-min Rain = 0
KMC4 221204Z 06003KT 09/07 A2988 RMK A01 T00880072  RH  090%=      5-min Rain = 0
KMC4 221205Z 08003KT 09/07 A2988 RMK A01 T00880072  RH  090%=      5-min Rain = 0
KMC4 221206Z 09003KT 09/07 A2988 RMK A01 T00880071  RH  089%=      5-min Rain = 0
KMC4 221207Z 10004KT 09/07 A2988 RMK A01 T00870071  RH  090%=      5-min Rain = 0
KMC4 221208Z 12004KT 09/07 A2988 RMK A01 T00870072  RH  090%=      5-min Rain = 0
KMC4 221209Z 13004KT 09/07 A2988 RMK A01 T00880073  RH  090%=      5-min Rain = 0
KMC4 221210Z 13005KT 09/07 A2988 RMK A01 T00880072  RH  090%=      5-min Rain = 0
KMC4 221211Z 15007KT 09/07 A2988 RMK A01 T00870071  RH  089%=      5-min Rain = 0
KMC4 221212Z 15006KT 09/07 A2988 RMK A01 T00870071  RH  090%=      5-min Rain = 0
KMC4 221213Z 15007KT 09/07 A2988 RMK A01 T00860070  RH  090%=      5-min Rain = 0
KMC4 221214Z 15007KT 08/07 A2988 RMK A01 T00840068  RH  090%=      5-min Rain = 0
KMC4 221215Z 15007KT 08/07 A2988 RMK A01 T00840069  RH  090%=      5-min Rain = 0
KMC4 221216Z 15008KT 08/07 A2988 RMK A01 T00830069  RH  091%=      5-min Rain = 0
KMC4 221217Z 15007KT 08/07 A2988 RMK A01 T00830068  RH  091%=      5-min Rain = 0
KMC4 221218Z 15007KT 08/07 A2988 RMK A01 T00820069  RH  091%=      5-min Rain = 0
KMC4 221219Z 14007KT 08/07 A2989 RMK A01 T00820068  RH  091%=      5-min Rain = 0
KMC4 221220Z 13006KT 08/07 A2989 RMK A01 T00810067  RH  091%=      5-min Rain = 0
KMC4 221221Z 14006KT 08/07 A2989 RMK A01 T00800066  RH  091%=      5-min Rain = 0
KMC4 221222Z 13006KT 08/07 A2989 RMK A01 T00790067  RH  092%=      5-min Rain = 0
KMC4 221223Z 11004KT 08/07 A2989 RMK A01 T00800068  RH  092%=      5-min Rain = 0
KMC4 221224Z 11005KT 08/07 A2989 RMK A01 T00800068  RH  092%=      5-min Rain = 0
KMC4 221225Z 12007KT 08/07 A2989 RMK A01 T00810070  RH  092%=      5-min Rain = 0
KMC4 221226Z 09005KT 08/07 A2989 RMK A01 T00830071  RH  092%=      5-min Rain = 0
KMC4 221227Z 09004KT 08/07 A2989 RMK A01 T00830071  RH  092%=      5-min Rain = 0
KMC4 221228Z 07004KT 08/07 A2989 RMK A01 T00830070  RH  092%=      5-min Rain = 0
KMC4 221229Z 07004KT 08/07 A2989 RMK A01 T00840070  RH  091%=      5-min Rain = 0
KMC4 221230Z 06004KT 08/07 A2989 RMK A01 T00830070  RH  091%=      5-min Rain = 0
KMC4 221231Z 07004KT 08/07 A2989 RMK A01 T00830069  RH  091%=      5-min Rain = 0
KMC4 221232Z 07005KT 08/07 A2989 RMK A01 T00820069  RH  091%=      5-min Rain = 0
KMC4 221233Z 06004KT 08/07 A2989 RMK A01 T00820069  RH  092%=      5-min Rain = 0
KMC4 221234Z 06005KT 08/07 A2989 RMK A01 T00820069  RH  092%=      5-min Rain = 0
KMC4 221235Z 07004KT 08/07 A2989 RMK A01 T00810068  RH  092%=      5-min Rain = 0
KMC4 221236Z 07004KT 08/07 A2989 RMK A01 T00810068  RH  092%=      5-min Rain = 0
KMC4 221237Z 07004KT 08/07 A2989 RMK A01 T00810069  RH  092%=      5-min Rain = 0
KMC4 221238Z 08003KT 08/07 A2989 RMK A01 T00800068  RH  092%=      5-min Rain = 0
KMC4 221239Z 08004KT 08/07 A2989 RMK A01 T00800068  RH  092%=      5-min Rain = 0
KMC4 221240Z 08004KT 08/07 A2989 RMK A01 T00800068  RH  092%=      5-min Rain = 0
KMC4 221241Z 09004KT 08/07 A2989 RMK A01 T00800069  RH  093%=      5-min Rain = 0
KMC4 221242Z 10004KT 08/07 A2989 RMK A01 T00800069  RH  093%=      5-min Rain = 0
KMC4 221243Z 11005KT 08/07 A2989 RMK A01 T00800069  RH  093%=      5-min Rain = 0
KMC4 221244Z 12005KT 08/07 A2989 RMK A01 T00800069  RH  093%=      5-min Rain = 0
KMC4 221245Z 12006KT 08/07 A2989 RMK A01 T00810070  RH  093%=      5-min Rain = 0
KMC4 221246Z 13006KT 08/07 A2989 RMK A01 T00810069  RH  092%=      5-min Rain = 0
KMC4 221247Z 13007KT 08/07 A2989 RMK A01 T00800068  RH  092%=      5-min Rain = 0
KMC4 221248Z 13007KT 08/07 A2989 RMK A01 T00800068  RH  092%=      5-min Rain = 0
KMC4 221249Z 13007KT 08/07 A2989 RMK A01 T00790067  RH  092%=      5-min Rain = 0
KMC4 221250Z 13007KT 08/07 A2989 RMK A01 T00780065  RH  092%=      5-min Rain = 0
KMC4 221251Z 14007KT 08/06 A2989 RMK A01 T00760064  RH  092%=      5-min Rain = 0
KMC4 221252Z 14007KT 08/06 A2989 RMK A01 T00750063  RH  092%=      5-min Rain = 0
KMC4 221253Z 14008KT 07/06 A2989 RMK A01 T00740063  RH  092%=      5-min Rain = 0
KMC4 221254Z 13007KT 07/06 A2989 RMK A01 T00740063  RH  093%=      5-min Rain = 0
KMC4 221255Z 13007KT 07/06 A2989 RMK A01 T00730063  RH  093%=      5-min Rain = 0
KMC4 221256Z 13008KT 07/06 A2989 RMK A01 T00720062  RH  093%=      5-min Rain = 0
KMC4 221257Z 13007KT 07/06 A2989 RMK A01 T00720063  RH  094%=      5-min Rain = 0
KMC4 221258Z 13007KT 07/06 A2989 RMK A01 T00720063  RH  094%=      5-min Rain = 0
KMC4 221259Z 13006KT 07/06 A2989 RMK A01 T00720064  RH  095%=      5-min Rain = 0
KMC4 221300Z 13007KT 07/07 A2989 RMK A01 T00730065  RH  095%=      5-min Rain = 0
KMC4 221301Z 12005KT 07/07 A2989 RMK A01 T00740066  RH  095%=      5-min Rain = 0
KMC4 221302Z 12005KT 08/07 A299 RMK A01 T00750068  RH  095%=      5-min Rain = 0
KMC4 221303Z 11004KT 08/07 A299 RMK A01 T00760069  RH  095%=      5-min Rain = 0
KMC4 221304Z 10004KT 08/07 A299 RMK A01 T00770069  RH  095%=      5-min Rain = 0
KMC4 221305Z 10004KT 08/07 A299 RMK A01 T00780070  RH  095%=      5-min Rain = 0
KMC4 221306Z 10003KT 08/07 A299 RMK A01 T00800071  RH  094%=      5-min Rain = 0
KMC4 221307Z 08002KT 08/07 A299 RMK A01 T00800070  RH  094%=      5-min Rain = 0
KMC4 221308Z 08004KT 08/07 A299 RMK A01 T00790067  RH  092%=      5-min Rain = 0
KMC4 221309Z 09003KT 08/07 A299 RMK A01 T00790067  RH  093%=      5-min Rain = 0
KMC4 221310Z 09003KT 08/07 A299 RMK A01 T00790068  RH  093%=      5-min Rain = 0
KMC4 221311Z 10003KT 08/07 A299 RMK A01 T00790067  RH  093%=      5-min Rain = 0
KMC4 221312Z 10003KT 08/07 A299 RMK A01 T00780067  RH  092%=      5-min Rain = 0
KMC4 221313Z 11003KT 08/07 A299 RMK A01 T00780067  RH  093%=      5-min Rain = 0
KMC4 221314Z 11004KT 08/07 A299 RMK A01 T00780067  RH  093%=      5-min Rain = 0
KMC4 221315Z 12004KT 08/07 A299 RMK A01 T00780067  RH  093%=      5-min Rain = 0
KMC4 221316Z 12004KT 08/07 A299 RMK A01 T00790069  RH  093%=      5-min Rain = 0
KMC4 221317Z 12004KT 08/07 A299 RMK A01 T00790069  RH  093%=      5-min Rain = 0
KMC4 221318Z 13005KT 08/07 A299 RMK A01 T00790068  RH  093%=      5-min Rain = 0
KMC4 221319Z 12004KT 08/07 A299 RMK A01 T00790068  RH  093%=      5-min Rain = 0
KMC4 221320Z 13004KT 08/07 A299 RMK A01 T00790068  RH  093%=      5-min Rain = 0
KMC4 221321Z 12004KT 08/07 A2991 RMK A01 T00780067  RH  093%=      5-min Rain = 0
KMC4 221322Z 12004KT 08/07 A2991 RMK A01 T00780067  RH  093%=      5-min Rain = 0
KMC4 221323Z 13004KT 08/07 A2991 RMK A01 T00770066  RH  093%=      5-min Rain = 0
KMC4 221324Z 13005KT 08/07 A2991 RMK A01 T00770066  RH  093%=      5-min Rain = 0
KMC4 221325Z 12005KT 08/07 A2991 RMK A01 T00760066  RH  093%=      5-min Rain = 0
KMC4 221326Z 13004KT 08/07 A2991 RMK A01 T00760065  RH  093%=      5-min Rain = 0
KMC4 221327Z 14006KT 08/07 A2991 RMK A01 T00760066  RH  093%=      5-min Rain = 0
KMC4 221328Z 14006KT 08/07 A2991 RMK A01 T00760066  RH  094%=      5-min Rain = 0
KMC4 221329Z 14006KT 08/07 A2991 RMK A01 T00750066  RH  094%=      5-min Rain = 0
KMC4 221330Z 14006KT 08/07 A2991 RMK A01 T00750065  RH  094%=      5-min Rain = 0
KMC4 221331Z 14007KT 08/07 A2991 RMK A01 T00750065  RH  094%=      5-min Rain = 0
KMC4 221332Z 14007KT 08/07 A2991 RMK A01 T00750066  RH  094%=      5-min Rain = 0
KMC4 221333Z 14007KT 08/07 A2991 RMK A01 T00750067  RH  094%=      5-min Rain = 0
KMC4 221334Z 14007KT 08/07 A2991 RMK A01 T00760068  RH  094%=      5-min Rain = 0
KMC4 221335Z 14006KT 08/07 A2991 RMK A01 T00760067  RH  094%=      5-min Rain = 0
KMC4 221336Z 14006KT 08/07 A2991 RMK A01 T00760067  RH  094%=      5-min Rain = 0
KMC4 221337Z 14006KT 08/07 A2991 RMK A01 T00760067  RH  094%=      5-min Rain = 0
KMC4 221338Z 14005KT 08/07 A2991 RMK A01 T00760067  RH  094%=      5-min Rain = 0
KMC4 221339Z 14006KT 08/07 A2991 RMK A01 T00760066  RH  094%=      5-min Rain = 0
KMC4 221340Z 14005KT 08/07 A2991 RMK A01 T00750066  RH  094%=      5-min Rain = 0
KMC4 221341Z 14006KT 08/07 A2991 RMK A01 T00750066  RH  094%=      5-min Rain = 0
KMC4 221342Z 14006KT 08/07 A2991 RMK A01 T00750066  RH  094%=      5-min Rain = 0
KMC4 221343Z 14006KT 08/07 A2991 RMK A01 T00760066  RH  094%=      5-min Rain = 0
KMC4 221344Z 14006KT 08/07 A2991 RMK A01 T00760067  RH  094%=      5-min Rain = 0
KMC4 221345Z 14006KT 08/07 A2991 RMK A01 T00760067  RH  094%=      5-min Rain = 0
KMC4 221346Z 14006KT 08/07 A2991 RMK A01 T00770067  RH  093%=      5-min Rain = 0
KMC4 221347Z 14006KT 08/07 A2991 RMK A01 T00770067  RH  093%=      5-min Rain = 0
KMC4 221348Z 14006KT 08/07 A2991 RMK A01 T00770067  RH  093%=      5-min Rain = 0
KMC4 221349Z 14006KT 08/07 A2991 RMK A01 T00780067  RH  093%=      5-min Rain = 0
KMC4 221350Z 13006KT 08/07 A2991 RMK A01 T00780067  RH  093%=      5-min Rain = 0
KMC4 221351Z 14006KT 08/07 A2991 RMK A01 T00790067  RH  092%=      5-min Rain = 0
KMC4 221352Z 14006KT 08/07 A2991 RMK A01 T00790068  RH  092%=      5-min Rain = 0
KMC4 221353Z 13006KT 08/07 A2991 RMK A01 T00800068  RH  092%=      5-min Rain = 0
KMC4 221354Z 13005KT 08/07 A2991 RMK A01 T00810068  RH  092%=      5-min Rain = 0
KMC4 221355Z 14005KT 08/07 A2991 RMK A01 T00810068  RH  092%=      5-min Rain = 0
KMC4 221356Z 14005KT 08/07 A2991 RMK A01 T00820068  RH  091%=      5-min Rain = 0
KMC4 221357Z 13005KT 08/07 A2992 RMK A01 T00820069  RH  091%=      5-min Rain = 0
KMC4 221358Z 13005KT 08/07 A2992 RMK A01 T00830069  RH  091%=      5-min Rain = 0
KMC4 221359Z 13004KT 08/07 A2992 RMK A01 T00840070  RH  091%=      5-min Rain = 0
KMC4 221400Z 13004KT 09/07 A2992 RMK A01 T00850070  RH  090%=      5-min Rain = 0
KMC4 221401Z 14003KT 09/07 A2992 RMK A01 T00850070  RH  090%=      5-min Rain = 0
KMC4 221402Z 14003KT 09/07 A2992 RMK A01 T00860071  RH  090%=      5-min Rain = 0
KMC4 221403Z 14003KT 09/07 A2992 RMK A01 T00880071  RH  089%=      5-min Rain = 0
KMC4 221404Z 13003KT 09/07 A2992 RMK A01 T00890072  RH  089%=      5-min Rain = 0
KMC4 221405Z 13003KT 09/07 A2992 RMK A01 T00900072  RH  089%=      5-min Rain = 0
KMC4 221406Z 13003KT 09/07 A2992 RMK A01 T00910072  RH  088%=      5-min Rain = 0
KMC4 221407Z 14003KT 09/07 A2992 RMK A01 T00920073  RH  088%=      5-min Rain = 0
KMC4 221408Z 14003KT 09/07 A2992 RMK A01 T00930073  RH  087%=      5-min Rain = 0
KMC4 221409Z 14003KT 09/07 A2992 RMK A01 T00940073  RH  087%=      5-min Rain = 0
KMC4 221410Z 15004KT 10/07 A2992 RMK A01 T00950073  RH  086%=      5-min Rain = 0
KMC4 221411Z 14004KT 10/07 A2992 RMK A01 T00950073  RH  086%=      5-min Rain = 0
KMC4 221412Z 15005KT 10/07 A2993 RMK A01 T00950073  RH  086%=      5-min Rain = 0
KMC4 221413Z 15005KT 09/07 A2993 RMK A01 T00940073  RH  087%=      5-min Rain = 0
KMC4 221414Z 15005KT 09/07 A2993 RMK A01 T00930073  RH  087%=      5-min Rain = 0
KMC4 221415Z 16006KT 09/07 A2993 RMK A01 T00930073  RH  087%=      5-min Rain = 0
KMC4 221416Z 15006KT 09/07 A2993 RMK A01 T00930073  RH  088%=      5-min Rain = 0
KMC4 221417Z 15006KT 09/07 A2993 RMK A01 T00930074  RH  088%=      5-min Rain = 0
KMC4 221418Z 15007KT 09/07 A2993 RMK A01 T00930074  RH  088%=      5-min Rain = 0
KMC4 221419Z 15007KT 09/08 A2993 RMK A01 T00940075  RH  088%=      5-min Rain = 0
KMC4 221420Z 15008KT 09/08 A2993 RMK A01 T00940075  RH  088%=      5-min Rain = 0
KMC4 221421Z 15007KT 10/08 A2993 RMK A01 T00950075  RH  087%=      5-min Rain = 0
KMC4 221422Z 15007KT 10/08 A2993 RMK A01 T00950075  RH  087%=      5-min Rain = 0
KMC4 221423Z 15007KT 10/08 A2993 RMK A01 T00960075  RH  087%=      5-min Rain = 0
KMC4 221424Z 15008KT 10/08 A2993 RMK A01 T00960075  RH  087%=      5-min Rain = 0
KMC4 221425Z 15007KT 10/08 A2993 RMK A01 T00970075  RH  086%=      5-min Rain = 0
KMC4 221426Z 15006KT 10/08 A2993 RMK A01 T00970076  RH  087%=      5-min Rain = 0
KMC4 221427Z 15007KT 10/08 A2993 RMK A01 T00970076  RH  086%=      5-min Rain = 0
KMC4 221428Z 15005KT 10/08 A2993 RMK A01 T00980076  RH  086%=      5-min Rain = 0
KMC4 221429Z 14005KT 10/08 A2993 RMK A01 T00980076  RH  086%=      5-min Rain = 0
KMC4 221430Z 14005KT 10/08 A2993 RMK A01 T00980076  RH  086%=      5-min Rain = 0
KMC4 221431Z 14005KT 10/08 A2994 RMK A01 T00990076  RH  086%=      5-min Rain = 0
KMC4 221432Z 14005KT 10/08 A2994 RMK A01 T00990077  RH  086%=      5-min Rain = 0
KMC4 221433Z 14005KT 10/08 A2994 RMK A01 T01000077  RH  086%=      5-min Rain = 0
KMC4 221434Z 14005KT 10/08 A2994 RMK A01 T01010077  RH  086%=      5-min Rain = 0
KMC4 221435Z 13004KT 10/08 A2994 RMK A01 T01020078  RH  085%=      5-min Rain = 0
KMC4 221436Z 14005KT 10/08 A2994 RMK A01 T01020078  RH  085%=      5-min Rain = 0
KMC4 221437Z 13004KT 10/08 A2994 RMK A01 T01030079  RH  085%=      5-min Rain = 0
KMC4 221438Z 14005KT 10/08 A2994 RMK A01 T01040079  RH  084%=      5-min Rain = 0
KMC4 221439Z 13005KT 11/08 A2994 RMK A01 T01050078  RH  084%=      5-min Rain = 0
KMC4 221440Z 14005KT 11/08 A2994 RMK A01 T01050079  RH  084%=      5-min Rain = 0
KMC4 221441Z 14005KT 11/08 A2994 RMK A01 T01060079  RH  083%=      5-min Rain = 0
KMC4 221442Z 15005KT 11/08 A2994 RMK A01 T01070080  RH  083%=      5-min Rain = 0
KMC4 221443Z 14007KT 11/08 A2994 RMK A01 T01080081  RH  083%=      5-min Rain = 0
KMC4 221444Z 15009KT 11/08 A2994 RMK A01 T01090079  RH  082%=      5-min Rain = 0
KMC4 221445Z 15010KT 11/08 A2994 RMK A01 T01090078  RH  081%=      5-min Rain = 0
KMC4 221446Z 14011KT 11/08 A2994 RMK A01 T01090077  RH  081%=      5-min Rain = 0
KMC4 221447Z 14010KT 11/08 A2994 RMK A01 T01090077  RH  080%=      5-min Rain = 0
KMC4 221448Z 14010KT 11/08 A2994 RMK A01 T01100077  RH  080%=      5-min Rain = 0
KMC4 221449Z 14010KT 11/08 A2994 RMK A01 T01100078  RH  080%=      5-min Rain = 0
KMC4 221450Z 15011KT 11/08 A2994 RMK A01 T01110078  RH  080%=      5-min Rain = 0
KMC4 221451Z 14012KT 11/08 A2994 RMK A01 T01110077  RH  079%=      5-min Rain = 0
KMC4 221452Z 15011KT 11/08 A2994 RMK A01 T01120077  RH  079%=      5-min Rain = 0
KMC4 221453Z 15009KT 11/08 A2994 RMK A01 T01120078  RH  079%=      5-min Rain = 0
KMC4 221454Z 15011KT 11/08 A2994 RMK A01 T01130078  RH  079%=      5-min Rain = 0
KMC4 221455Z 15012KT 11/08 A2993 RMK A01 T01130077  RH  079%=      5-min Rain = 0
KMC4 221456Z 14012KT 11/08 A2993 RMK A01 T01130076  RH  078%=      5-min Rain = 0
KMC4 221457Z 15012KT 11/08 A2993 RMK A01 T01130077  RH  078%=      5-min Rain = 0
KMC4 221458Z 15012KT 11/08 A2993 RMK A01 T01130076  RH  078%=      5-min Rain = 0
KMC4 221459Z 15013KT 11/08 A2993 RMK A01 T01130075  RH  078%=      5-min Rain = 0
KMC4 221500Z 15013KT 11/08 A2993 RMK A01 T01130075  RH  078%=      5-min Rain = 0
KMC4 221501Z 15011KT 11/08 A2993 RMK A01 T01130075  RH  078%=      5-min Rain = 0
KMC4 221502Z 15011KT 11/08 A2993 RMK A01 T01130075  RH  078%=      5-min Rain = 0
KMC4 221503Z 16011KT 11/08 A2993 RMK A01 T01140077  RH  078%=      5-min Rain = 0
KMC4 221504Z 15011KT 12/08 A2993 RMK A01 T01150076  RH  077%=      5-min Rain = 0
KMC4 221505Z 15012KT 11/08 A2993 RMK A01 T01140075  RH  077%=      5-min Rain = 0
KMC4 221506Z 15012KT 12/08 A2994 RMK A01 T01150076  RH  077%=      5-min Rain = 0
KMC4 221507Z 15013KT 12/08 A2994 RMK A01 T01160076  RH  076%=      5-min Rain = 0
KMC4 221508Z 15011KT 12/08 A2994 RMK A01 T01160075  RH  076%=      5-min Rain = 0
KMC4 221509Z 14010KT 12/08 A2994 RMK A01 T01170076  RH  076%=      5-min Rain = 0
KMC4 221510Z 14013KT 12/08 A2994 RMK A01 T01190076  RH  075%=      5-min Rain = 0
KMC4 221511Z 15011KT 12/08 A2994 RMK A01 T01190076  RH  075%=      5-min Rain = 0
KMC4 221512Z 15011KT 12/08 A2994 RMK A01 T01190076  RH  075%=      5-min Rain = 0
KMC4 221513Z 15012KT 12/08 A2994 RMK A01 T01190075  RH  074%=      5-min Rain = 0
KMC4 221514Z 14012KT 12/08 A2993 RMK A01 T01190075  RH  075%=      5-min Rain = 0
KMC4 221515Z 15012KT 12/08 A2993 RMK A01 T01190075  RH  075%=      5-min Rain = 0
KMC4 221516Z 16011KT 12/08 A2993 RMK A01 T01190075  RH  075%=      5-min Rain = 0
KMC4 221517Z 15010KT 12/08 A2993 RMK A01 T01180076  RH  075%=      5-min Rain = 0
KMC4 221518Z 15012KT 12/08 A2993 RMK A01 T01190076  RH  075%=      5-min Rain = 0
KMC4 221519Z 14014KT 12/08 A2993 RMK A01 T01190076  RH  075%=      5-min Rain = 0
KMC4 221520Z 15014KT 12/08 A2993 RMK A01 T01200075  RH  074%=      5-min Rain = 0
KMC4 221521Z 15013KT 12/08 A2993 RMK A01 T01200075  RH  074%=      5-min Rain = 0
KMC4 221522Z 16013KT 12/08 A2993 RMK A01 T01200075  RH  074%=      5-min Rain = 0
KMC4 221523Z 15013KT 12/08 A2993 RMK A01 T01200075  RH  074%=      5-min Rain = 0
KMC4 221524Z 15014KT 12/08 A2993 RMK A01 T01200075  RH  074%=      5-min Rain = 0
KMC4 221525Z 15013KT 12/08 A2993 RMK A01 T01210075  RH  073%=      5-min Rain = 0
KMC4 221526Z 15012KT 12/08 A2993 RMK A01 T01210075  RH  073%=      5-min Rain = 0
KMC4 221527Z 16012KT 12/08 A2993 RMK A01 T01220076  RH  073%=      5-min Rain = 0
KMC4 221528Z 16012KT 12/08 A2993 RMK A01 T01220075  RH  073%=      5-min Rain = 0
KMC4 221529Z 15013KT 12/08 A2993 RMK A01 T01220075  RH  073%=      5-min Rain = 0
KMC4 221530Z 16013KT 12/07 A2993 RMK A01 T01220074  RH  072%=      5-min Rain = 0
KMC4 221531Z 15013KT 12/07 A2993 RMK A01 T01220074  RH  072%=      5-min Rain = 0
KMC4 221532Z 15012KT 12/07 A2993 RMK A01 T01220074  RH  072%=      5-min Rain = 0
KMC4 221533Z 15011KT 12/07 A2993 RMK A01 T01230074  RH  072%=      5-min Rain = 0
KMC4 221534Z 15012KT 12/07 A2993 RMK A01 T01240074  RH  071%=      5-min Rain = 0
KMC4 221535Z 16011KT 12/07 A2993 RMK A01 T01240073  RH  071%=      5-min Rain = 0
KMC4 221536Z 15011KT 12/07 A2993 RMK A01 T01240073  RH  071%=      5-min Rain = 0
KMC4 221537Z 15012KT 13/08 A2993 RMK A01 T01260075  RH  071%=      5-min Rain = 0
KMC4 221538Z 15011KT 13/08 A2993 RMK A01 T01270075  RH  070%=      5-min Rain = 0
KMC4 221539Z 16010KT 13/08 A2993 RMK A01 T01280075  RH  070%=      5-min Rain = 0
KMC4 221540Z 16010KT 13/08 A2993 RMK A01 T01280075  RH  070%=      5-min Rain = 0
KMC4 221541Z 15009KT 13/08 A2993 RMK A01 T01280076  RH  071%=      5-min Rain = 0
KMC4 221542Z 15012KT 13/08 A2993 RMK A01 T01290077  RH  071%=      5-min Rain = 0
KMC4 221543Z 15011KT 13/08 A2993 RMK A01 T01290075  RH  070%=      5-min Rain = 0
KMC4 221544Z 15011KT 13/08 A2993 RMK A01 T01270075  RH  070%=      5-min Rain = 0
KMC4 221545Z 15010KT 13/08 A2993 RMK A01 T01270075  RH  071%=      5-min Rain = 0
KMC4 221546Z 15010KT 13/08 A2993 RMK A01 T01280076  RH  071%=      5-min Rain = 0
KMC4 221547Z 15011KT 13/08 A2993 RMK A01 T01300076  RH  070%=      5-min Rain = 0
KMC4 221548Z 17011KT 13/08 A2993 RMK A01 T01310075  RH  069%=      5-min Rain = 0
KMC4 221549Z 16011KT 13/08 A2993 RMK A01 T01300075  RH  069%=      5-min Rain = 0
KMC4 221550Z 15009KT 13/08 A2993 RMK A01 T01290076  RH  070%=      5-min Rain = 0
KMC4 221551Z 15009KT 13/08 A2993 RMK A01 T01310078  RH  070%=      5-min Rain = 0
KMC4 221552Z 15010KT 13/08 A2993 RMK A01 T01330077  RH  069%=      5-min Rain = 0
KMC4 221553Z 14011KT 13/08 A2993 RMK A01 T01320077  RH  069%=      5-min Rain = 0
KMC4 221554Z 16010KT 13/07 A2993 RMK A01 T01320074  RH  068%=      5-min Rain = 0
KMC4 221555Z 14009KT 13/08 A2993 RMK A01 T01330075  RH  068%=      5-min Rain = 0
KMC4 221556Z 15012KT 13/08 A2993 RMK A01 T01340076  RH  068%=      5-min Rain = 0
KMC4 221557Z 17010KT 13/07 A2993 RMK A01 T01340074  RH  067%=      5-min Rain = 0
KMC4 221558Z 15009KT 13/07 A2993 RMK A01 T01330073  RH  067%=      5-min Rain = 0
KMC4 221559Z 14010KT 13/07 A2993 RMK A01 T01320074  RH  068%=      5-min Rain = 0
KMC4 221600Z 15009KT 13/08 A2993 RMK A01 T01320075  RH  068%=      5-min Rain = 0
KMC4 221601Z 16008KT 13/08 A2993 RMK A01 T01340077  RH  069%=      5-min Rain = 0
KMC4 221602Z 15010KT 14/08 A2993 RMK A01 T01360077  RH  068%=      5-min Rain = 0
KMC4 221603Z 14010KT 14/08 A2993 RMK A01 T01370076  RH  067%=      5-min Rain = 0
KMC4 221604Z 14011KT 14/08 A2993 RMK A01 T01370075  RH  066%=      5-min Rain = 0
KMC4 221605Z 16012KT 14/08 A2993 RMK A01 T01370075  RH  066%=      5-min Rain = 0
KMC4 221606Z 16010KT 14/07 A2993 RMK A01 T01370073  RH  065%=      5-min Rain = 0
KMC4 221607Z 15009KT 14/07 A2993 RMK A01 T01360073  RH  066%=      5-min Rain = 0
KMC4 221608Z 15011KT 14/07 A2993 RMK A01 T01360074  RH  066%=      5-min Rain = 0
KMC4 221609Z 16011KT 14/07 A2993 RMK A01 T01370074  RH  066%=      5-min Rain = 0
KMC4 221610Z 17010KT 14/07 A2993 RMK A01 T01370074  RH  066%=      5-min Rain = 0
KMC4 221611Z 16008KT 14/07 A2993 RMK A01 T01360073  RH  066%=      5-min Rain = 0
KMC4 221612Z 16008KT 14/08 A2993 RMK A01 T01360076  RH  067%=      5-min Rain = 0
KMC4 221613Z 16010KT 14/07 A2993 RMK A01 T01400074  RH  064%=      5-min Rain = 0
KMC4 221614Z 15010KT 14/07 A2993 RMK A01 T01400070  RH  063%=      5-min Rain = 0
KMC4 221615Z 15009KT 14/07 A2993 RMK A01 T01390072  RH  064%=      5-min Rain = 0
KMC4 221616Z 16008KT 14/07 A2992 RMK A01 T01380073  RH  064%=      5-min Rain = 0
KMC4 221617Z 16008KT 14/07 A2992 RMK A01 T01380073  RH  065%=      5-min Rain = 0
KMC4 221618Z 17008KT 14/08 A2992 RMK A01 T01400075  RH  065%=      5-min Rain = 0
KMC4 221619Z 14009KT 14/08 A2992 RMK A01 T01430075  RH  064%=      5-min Rain = 0
KMC4 221620Z 14012KT 14/08 A2992 RMK A01 T01440075  RH  063%=      5-min Rain = 0
KMC4 221621Z 14010KT 14/07 A2992 RMK A01 T01440074  RH  063%=      5-min Rain = 0
KMC4 221622Z 16011KT 14/08 A2992 RMK A01 T01440076  RH  063%=      5-min Rain = 0
KMC4 221623Z 15012KT 15/07 A2992 RMK A01 T01450074  RH  062%=      5-min Rain = 0
KMC4 221624Z 15010KT 14/07 A2992 RMK A01 T01430072  RH  062%=      5-min Rain = 0
KMC4 221625Z 13008KT 14/07 A2992 RMK A01 T01430073  RH  063%=      5-min Rain = 0
KMC4 221626Z 13009KT 15/07 A2992 RMK A01 T01450074  RH  063%=      5-min Rain = 0
KMC4 221627Z 17010KT 15/07 A2992 RMK A01 T01470074  RH  061%=      5-min Rain = 0
KMC4 221628Z 16008KT 15/07 A2992 RMK A01 T01480073  RH  061%=      5-min Rain = 0
KMC4 221629Z 15007KT 15/07 A2992 RMK A01 T01470072  RH  061%=      5-min Rain = 0
KMC4 221630Z 15008KT 15/07 A2992 RMK A01 T01470073  RH  061%=      5-min Rain = 0
KMC4 221631Z 16010KT 15/07 A2992 RMK A01 T01490073  RH  061%=      5-min Rain = 0
KMC4 221632Z 15009KT 15/07 A2992 RMK A01 T01500071  RH  059%=      5-min Rain = 0
KMC4 221633Z 14008KT 15/07 A2992 RMK A01 T01500070  RH  059%=      5-min Rain = 0
KMC4 221634Z 16011KT 15/07 A2992 RMK A01 T01510072  RH  059%=      5-min Rain = 0
KMC4 221635Z 15009KT 15/07 A2992 RMK A01 T01510067  RH  057%=      5-min Rain = 0
KMC4 221636Z 15008KT 15/07 A2992 RMK A01 T01500068  RH  058%=      5-min Rain = 0
KMC4 221637Z 16010KT 15/07 A2992 RMK A01 T01520071  RH  058%=      5-min Rain = 0
KMC4 221638Z 14010KT 15/07 A2992 RMK A01 T01540074  RH  059%=      5-min Rain = 0
KMC4 221639Z 16010KT 16/07 A2992 RMK A01 T01550073  RH  058%=      5-min Rain = 0
KMC4 221640Z 15009KT 16/07 A2992 RMK A01 T01550068  RH  056%=      5-min Rain = 0
KMC4 221641Z 15006KT 15/07 A2992 RMK A01 T01540065  RH  056%=      5-min Rain = 0
KMC4 221642Z 14008KT 15/07 A2992 RMK A01 T01530068  RH  057%=      5-min Rain = 0
KMC4 221643Z 14010KT 16/08 A2991 RMK A01 T01560076  RH  059%=      5-min Rain = 0
KMC4 221644Z 13011KT 16/08 A2991 RMK A01 T01580075  RH  058%=      5-min Rain = 0
KMC4 221645Z 13010KT 16/07 A2991 RMK A01 T01570073  RH  058%=      5-min Rain = 0
KMC4 221646Z 13008KT 16/07 A2991 RMK A01 T01550074  RH  059%=      5-min Rain = 0
KMC4 221647Z 12009KT 16/08 A2991 RMK A01 T01560076  RH  059%=      5-min Rain = 0
KMC4 221648Z 13006KT 16/07 A2991 RMK A01 T01560073  RH  058%=      5-min Rain = 0
KMC4 221649Z 16008KT 16/07 A2991 RMK A01 T01560073  RH  058%=      5-min Rain = 0
KMC4 221650Z 14007KT 16/07 A2991 RMK A01 T01570073  RH  057%=      5-min Rain = 0
KMC4 221651Z 13011KT 16/08 A2991 RMK A01 T01580075  RH  058%=      5-min Rain = 0
KMC4 221652Z 14012KT 16/08 A2991 RMK A01 T01590076  RH  058%=      5-min Rain = 0
KMC4 221653Z 14012KT 16/08 A2991 RMK A01 T01590076  RH  058%=      5-min Rain = 0
KMC4 221654Z 14008KT 16/08 A2991 RMK A01 T01590076  RH  058%=      5-min Rain = 0
KMC4 221655Z 12010KT 16/08 A2991 RMK A01 T01590075  RH  057%=      5-min Rain = 0
KMC4 221656Z 11011KT 16/08 A2991 RMK A01 T01600075  RH  057%=      5-min Rain = 0
KMC4 221657Z 13007KT 16/07 A2991 RMK A01 T01580074  RH  057%=      5-min Rain = 0
KMC4 221658Z 14010KT 16/07 A2991 RMK A01 T01580069  RH  055%=      5-min Rain = 0
KMC4 221659Z 16009KT 16/07 A2991 RMK A01 T01600068  RH  054%=      5-min Rain = 0
KMC4 221700Z 14010KT 16/07 A2991 RMK A01 T01620071  RH  055%=      5-min Rain = 0
KMC4 221701Z 13010KT 16/07 A2991 RMK A01 T01640073  RH  055%=      5-min Rain = 0
KMC4 221702Z 15012KT 17/07 A2991 RMK A01 T01650074  RH  055%=      5-min Rain = 0
KMC4 221703Z 15013KT 17/07 A2991 RMK A01 T01650072  RH  054%=      5-min Rain = 0
KMC4 221704Z 15013KT 16/07 A299 RMK A01 T01630071  RH  055%=      5-min Rain = 0
KMC4 221705Z 14011KT 16/07 A299 RMK A01 T01630070  RH  054%=      5-min Rain = 0
KMC4 221706Z 14009KT 16/07 A299 RMK A01 T01620070  RH  054%=      5-min Rain = 0
KMC4 221707Z 14010KT 16/07 A299 RMK A01 T01630071  RH  055%=      5-min Rain = 0
KMC4 221708Z 14010KT 17/07 A299 RMK A01 T01650072  RH  054%=      5-min Rain = 0
KMC4 221709Z 12010KT 16/07 A299 RMK A01 T01640074  RH  055%=      5-min Rain = 0
KMC4 221710Z 12010KT 16/07 A299 RMK A01 T01640074  RH  055%=      5-min Rain = 0
KMC4 221711Z 14011KT 17/07 A299 RMK A01 T01660073  RH  054%=      5-min Rain = 0
KMC4 221712Z 12010KT 17/07 A299 RMK A01 T01680069  RH  052%=      5-min Rain = 0
KMC4 221713Z 12009KT 17/07 A299 RMK A01 T01670073  RH  054%=      5-min Rain = 0
KMC4 221714Z 13008KT 17/07 A299 RMK A01 T01660074  RH  055%=      5-min Rain = 0
KMC4 221715Z 12007KT 17/08 A299 RMK A01 T01650075  RH  055%=      5-min Rain = 0
KMC4 221716Z 15006KT 17/08 A299 RMK A01 T01670075  RH  054%=      5-min Rain = 0
KMC4 221717Z 16007KT 17/07 A299 RMK A01 T01690067  RH  051%=      5-min Rain = 0
KMC4 221718Z 18008KT 17/06 A299 RMK A01 T01700060  RH  048%=      5-min Rain = 0
KMC4 221719Z 18006KT 17/06 A299 RMK A01 T01710061  RH  048%=      5-min Rain = 0
KMC4 221720Z 17007KT 17/06 A299 RMK A01 T01740062  RH  048%=      5-min Rain = 0
KMC4 221721Z 15007KT 18/07 A299 RMK A01 T01750065  RH  048%=      5-min Rain = 0
KMC4 221722Z 13006KT 18/07 A299 RMK A01 T01750065  RH  048%=      5-min Rain = 0
KMC4 221723Z 17006KT 17/06 A299 RMK A01 T01740063  RH  048%=      5-min Rain = 0
KMC4 221724Z 15008KT 17/06 A299 RMK A01 T01740061  RH  047%=      5-min Rain = 0
KMC4 221725Z 14006KT 18/06 A2989 RMK A01 T01750057  RH  046%=      5-min Rain = 0
KMC4 221726Z 15007KT 18/06 A2989 RMK A01 T01760060  RH  047%=      5-min Rain = 0
KMC4 221727Z 13008KT 18/06 A2989 RMK A01 T01760062  RH  047%=      5-min Rain = 0
KMC4 221728Z 17008KT 18/06 A2989 RMK A01 T01780062  RH  046%=      5-min Rain = 0
KMC4 221729Z 15008KT 18/06 A2989 RMK A01 T01780061  RH  046%=      5-min Rain = 0
KMC4 221730Z 14009KT 18/07 A2989 RMK A01 T01770065  RH  048%=      5-min Rain = 0
KMC4 221731Z 13009KT 18/06 A2989 RMK A01 T01790064  RH  047%=      5-min Rain = 0
KMC4 221732Z 14011KT 18/06 A2989 RMK A01 T01790064  RH  047%=      5-min Rain = 0
KMC4 221733Z 14008KT 18/06 A2989 RMK A01 T01800062  RH  046%=      5-min Rain = 0
KMC4 221734Z 14005KT 18/06 A2989 RMK A01 T01800063  RH  046%=      5-min Rain = 0
KMC4 221735Z 15010KT 18/06 A2989 RMK A01 T01800063  RH  046%=      5-min Rain = 0
KMC4 221736Z 14010KT 18/07 A2989 RMK A01 T01810065  RH  047%=      5-min Rain = 0
KMC4 221737Z 14009KT 18/07 A2989 RMK A01 T01820067  RH  047%=      5-min Rain = 0
KMC4 221738Z 16009KT 18/07 A2989 RMK A01 T01830066  RH  046%=      5-min Rain = 0
KMC4 221739Z 19006KT 19/05 A2989 RMK A01 T01850048  RH  041%=      5-min Rain = 0
KMC4 221740Z 15006KT 19/05 A2989 RMK A01 T01850049  RH  041%=      5-min Rain = 0
KMC4 221741Z 19009KT 19/05 A2989 RMK A01 T01870054  RH  042%=      5-min Rain = 0
KMC4 221742Z 18011KT 19/05 A2989 RMK A01 T01890048  RH  039%=      5-min Rain = 0
KMC4 221743Z 20008KT 19/04 A2989 RMK A01 T01870042  RH  038%=      5-min Rain = 0
KMC4 221744Z 17007G12KT 19/05 A2989 RMK A01 T01850049  RH  041%=      5-min Rain = 0
KMC4 221745Z 19012KT 19/05 A2989 RMK A01 T01850049  RH  041%=      5-min Rain = 0
KMC4 221746Z 19009KT 19/05 A2989 RMK A01 T01850047  RH  040%=      5-min Rain = 0
KMC4 221747Z 19008KT 18/05 A2989 RMK A01 T01840051  RH  042%=      5-min Rain = 0
KMC4 221748Z 19006KT 19/05 A2989 RMK A01 T01850051  RH  041%=      5-min Rain = 0
KMC4 221749Z 16008KT 19/05 A2989 RMK A01 T01850052  RH  042%=      5-min Rain = 0
KMC4 221750Z 15011KT 19/05 A2988 RMK A01 T01850053  RH  042%=      5-min Rain = 0
KMC4 221751Z 14008KT 19/05 A2988 RMK A01 T01850049  RH  041%=      5-min Rain = 0
KMC4 221752Z 15009KT 18/05 A2988 RMK A01 T01840052  RH  042%=      5-min Rain = 0
KMC4 221753Z 14010KT 19/06 A2988 RMK A01 T01870055  RH  042%=      5-min Rain = 0
KMC4 221754Z 14010KT 19/06 A2988 RMK A01 T01890055  RH  041%=      5-min Rain = 0
KMC4 221755Z 13011KT 19/06 A2988 RMK A01 T01890055  RH  041%=      5-min Rain = 0
KMC4 221756Z 15012KT 19/05 A2988 RMK A01 T01900054  RH  041%=      5-min Rain = 0
KMC4 221757Z 16014KT 19/05 A2988 RMK A01 T01910049  RH  039%=      5-min Rain = 0
KMC4 221758Z 16012KT 19/04 A2988 RMK A01 T01910044  RH  038%=      5-min Rain = 0
KMC4 221759Z 17009KT 19/05 A2988 RMK A01 T01890052  RH  040%=      5-min Rain = 0
KMC4 221800Z 15011KT 19/06 A2988 RMK A01 T01900060  RH  043%=      5-min Rain = 0
KMC4 221801Z 18009KT 19/06 A2988 RMK A01 T01920057  RH  041%=      5-min Rain = 0
KMC4 221802Z 17010KT 19/05 A2988 RMK A01 T01930053  RH  040%=      5-min Rain = 0
KMC4 221803Z 14014KT 19/06 A2988 RMK A01 T01940059  RH  041%=      5-min Rain = 0
KMC4 221804Z 13011KT 19/06 A2988 RMK A01 T01940058  RH  041%=      5-min Rain = 0
KMC4 221805Z 16010KT 19/06 A2988 RMK A01 T01940055  RH  040%=      5-min Rain = 0
KMC4 221806Z 20009KT 19/03 A2989 RMK A01 T01940031  RH  034%=      5-min Rain = 0
KMC4 221807Z 19007KT 19/02 A2989 RMK A01 T01910016  RH  031%=      5-min Rain = 0
KMC4 221808Z 18007KT 19/02 A2988 RMK A01 T01900018  RH  032%=      5-min Rain = 0
KMC4 221809Z 15010KT 19/03 A2988 RMK A01 T01890031  RH  035%=      5-min Rain = 0
KMC4 221810Z 14008KT 19/04 A2988 RMK A01 T01890035  RH  036%=      5-min Rain = 0
KMC4 221811Z 14004KT 19/04 A2988 RMK A01 T01900036  RH  036%=      5-min Rain = 0
KMC4 221812Z 15009KT 19/04 A2988 RMK A01 T01920040  RH  037%=      5-min Rain = 0
KMC4 221813Z 15009KT 19/04 A2988 RMK A01 T01940040  RH  036%=      5-min Rain = 0
KMC4 221814Z 16007KT 19/04 A2988 RMK A01 T01940040  RH  036%=      5-min Rain = 0
KMC4 221815Z 16006KT 19/04 A2988 RMK A01 T01920039  RH  036%=      5-min Rain = 0
KMC4 221816Z 18011KT 19/04 A2988 RMK A01 T01920036  RH  036%=      5-min Rain = 0
KMC4 221817Z 19009KT 19/03 A2988 RMK A01 T01940026  RH  033%=      5-min Rain = 0
KMC4 221818Z 20008KT 19/02 A2988 RMK A01 T01940024  RH  032%=      5-min Rain = 0
KMC4 221819Z 21006KT 19/03 A2988 RMK A01 T01910025  RH  033%=      5-min Rain = 0
KMC4 221820Z 19004KT 19/03 A2988 RMK A01 T01890026  RH  034%=      5-min Rain = 0
KMC4 221821Z 18006KT 19/03 A2988 RMK A01 T01900032  RH  035%=      5-min Rain = 0
KMC4 221822Z 19010KT 19/03 A2988 RMK A01 T01930034  RH  035%=      5-min Rain = 0
KMC4 221823Z 18013KT 19/03 A2987 RMK A01 T01940030  RH  033%=      5-min Rain = 0
KMC4 221824Z 17011G16KT 20/03 A2987 RMK A01 T01950030  RH  033%=      5-min Rain = 0
KMC4 221825Z 18008KT 20/03 A2988 RMK A01 T01960031  RH  034%=      5-min Rain = 0
KMC4 221826Z 19007KT 20/03 A2987 RMK A01 T01970029  RH  033%=      5-min Rain = 0
KMC4 221827Z 17010KT 20/03 A2987 RMK A01 T01960029  RH  033%=      5-min Rain = 0
KMC4 221828Z 18009KT 20/03 A2987 RMK A01 T01970032  RH  034%=      5-min Rain = 0
KMC4 221829Z 17009KT 20/03 A2987 RMK A01 T01970031  RH  033%=      5-min Rain = 0
KMC4 221830Z 18007KT 20/03 A2987 RMK A01 T01960029  RH  033%=      5-min Rain = 0
KMC4 221831Z 19007KT 19/03 A2987 RMK A01 T01940031  RH  034%=      5-min Rain = 0
KMC4 221832Z 18008KT 19/03 A2987 RMK A01 T01940032  RH  034%=      5-min Rain = 0
KMC4 221833Z 19009KT 20/04 A2987 RMK A01 T01960035  RH  034%=      5-min Rain = 0
KMC4 221834Z 19009KT 20/03 A2987 RMK A01 T01970032  RH  034%=      5-min Rain = 0
KMC4 221835Z 18008KT 20/03 A2987 RMK A01 T01950031  RH  034%=      5-min Rain = 0
KMC4 221836Z 18008KT 20/03 A2987 RMK A01 T01950033  RH  034%=      5-min Rain = 0
KMC4 221837Z 18009KT 19/03 A2987 RMK A01 T01940033  RH  034%=      5-min Rain = 0
KMC4 221838Z 19011KT 20/04 A2987 RMK A01 T01960038  RH  035%=      5-min Rain = 0
KMC4 221839Z 19012KT 20/04 A2987 RMK A01 T01980038  RH  035%=      5-min Rain = 0
KMC4 221840Z 18009KT 20/03 A2987 RMK A01 T01990034  RH  033%=      5-min Rain = 0
KMC4 221841Z 19009G14KT 20/03 A2987 RMK A01 T01970032  RH  033%=      5-min Rain = 0
KMC4 221842Z 18009KT 20/04 A2987 RMK A01 T01980039  RH  035%=      5-min Rain = 0
KMC4 221843Z 17009KT 20/04 A2987 RMK A01 T02000038  RH  034%=      5-min Rain = 0
KMC4 221844Z 15009KT 20/04 A2987 RMK A01 T02000042  RH  035%=      5-min Rain = 0
KMC4 221845Z 15008KT 20/04 A2986 RMK A01 T02010038  RH  034%=      5-min Rain = 0
KMC4 221846Z 15009KT 20/04 A2986 RMK A01 T01990039  RH  035%=      5-min Rain = 0
KMC4 221847Z 17008KT 20/04 A2986 RMK A01 T02000042  RH  035%=      5-min Rain = 0
KMC4 221848Z 19008KT 20/04 A2986 RMK A01 T02020039  RH  034%=      5-min Rain = 0
KMC4 221849Z 17008KT 20/04 A2986 RMK A01 T02040041  RH  034%=      5-min Rain = 0
KMC4 221850Z 16008KT 21/04 A2986 RMK A01 T02050039  RH  033%=      5-min Rain = 0
KMC4 221851Z 16011KT 21/04 A2985 RMK A01 T02050040  RH  034%=      5-min Rain = 0
KMC4 221852Z 16011KT 20/04 A2985 RMK A01 T02040040  RH  034%=      5-min Rain = 0
KMC4 221853Z 15007KT 20/04 A2985 RMK A01 T02030039  RH  034%=      5-min Rain = 0
KMC4 221854Z 14007KT 20/04 A2985 RMK A01 T02020040  RH  034%=      5-min Rain = 0
KMC4 221855Z 14007KT 20/04 A2985 RMK A01 T02030039  RH  034%=      5-min Rain = 0
KMC4 221856Z 18012KT 21/04 A2985 RMK A01 T02050041  RH  034%=      5-min Rain = 0
KMC4 221857Z 20011KT 21/04 A2985 RMK A01 T02070035  RH  032%=      5-min Rain = 0
KMC4 221858Z 19009KT 21/03 A2985 RMK A01 T02070031  RH  031%=      5-min Rain = 0
KMC4 221859Z 18008KT 21/03 A2985 RMK A01 T02050033  RH  032%=      5-min Rain = 0
KMC4 221900Z 16011G19KT 21/04 A2985 RMK A01 T02050038  RH  033%=      5-min Rain = 0
KMC4 221901Z 17012KT 21/04 A2985 RMK A01 T02070039  RH  033%=      5-min Rain = 0
KMC4 221902Z 18013KT 21/04 A2985 RMK A01 T02080039  RH  033%=      5-min Rain = 0
KMC4 221903Z 19013KT 21/04 A2985 RMK A01 T02070039  RH  033%=      5-min Rain = 0
KMC4 221904Z 17011KT 21/04 A2985 RMK A01 T02050039  RH  033%=      5-min Rain = 0
KMC4 221905Z 16012KT 21/04 A2984 RMK A01 T02080043  RH  034%=      5-min Rain = 0
KMC4 221906Z 19008KT 21/04 A2984 RMK A01 T02090041  RH  033%=      5-min Rain = 0
KMC4 221907Z 18009KT 21/04 A2984 RMK A01 T02100038  RH  032%=      5-min Rain = 0
KMC4 221908Z 16009KT 21/04 A2984 RMK A01 T02090039  RH  033%=      5-min Rain = 0
KMC4 221909Z 16009KT 21/04 A2984 RMK A01 T02080044  RH  034%=      5-min Rain = 0
KMC4 221910Z 17012KT 21/05 A2984 RMK A01 T02090045  RH  034%=      5-min Rain = 0
KMC4 221911Z 19012KT 21/04 A2984 RMK A01 T02100040  RH  033%=      5-min Rain = 0
KMC4 221912Z 19010KT 21/04 A2984 RMK A01 T02080039  RH  033%=      5-min Rain = 0
KMC4 221913Z 16009KT 21/04 A2984 RMK A01 T02080041  RH  033%=      5-min Rain = 0
KMC4 221914Z 15007KT 21/04 A2984 RMK A01 T02100039  RH  032%=      5-min Rain = 0
KMC4 221915Z 16008KT 21/04 A2983 RMK A01 T02100038  RH  032%=      5-min Rain = 0
KMC4 221916Z 18006KT 21/04 A2983 RMK A01 T02090039  RH  033%=      5-min Rain = 0
KMC4 221917Z 16011KT 21/05 A2983 RMK A01 T02090045  RH  034%=      5-min Rain = 0
KMC4 221918Z 15013KT 21/04 A2983 RMK A01 T02130041  RH  032%=      5-min Rain = 0
KMC4 221919Z 18013KT 21/04 A2983 RMK A01 T02140038  RH  032%=      5-min Rain = 0
KMC4 221920Z 19010KT 21/04 A2983 RMK A01 T02130039  RH  032%=      5-min Rain = 0
KMC4 221921Z 18009KT 21/04 A2983 RMK A01 T02120040  RH  032%=      5-min Rain = 0
KMC4 221922Z 16010KT 21/04 A2983 RMK A01 T02130043  RH  033%=      5-min Rain = 0
KMC4 221923Z 16009KT 21/04 A2983 RMK A01 T02140040  RH  032%=      5-min Rain = 0
KMC4 221924Z 15009KT 21/04 A2983 RMK A01 T02130042  RH  033%=      5-min Rain = 0
KMC4 221925Z 15006KT 21/04 A2983 RMK A01 T02140043  RH  033%=      5-min Rain = 0
KMC4 221926Z 16008KT 22/04 A2982 RMK A01 T02150043  RH  032%=      5-min Rain = 0
KMC4 221927Z 15009KT 22/04 A2982 RMK A01 T02160040  RH  032%=      5-min Rain = 0
KMC4 221928Z 17013G18KT 22/04 A2982 RMK A01 T02160039  RH  031%=      5-min Rain = 0
KMC4 221929Z 18014KT 22/03 A2982 RMK A01 T02180030  RH  029%=      5-min Rain = 0
KMC4 221930Z 18013KT 22/03 A2982 RMK A01 T02190029  RH  029%=      5-min Rain = 0
KMC4 221931Z 18013KT 22/03 A2982 RMK A01 T02220028  RH  028%=      5-min Rain = 0
KMC4 221932Z 19013KT 22/03 A2982 RMK A01 T02230027  RH  028%=      5-min Rain = 0
KMC4 221933Z 18013KT 22/03 A2982 RMK A01 T02230025  RH  027%=      5-min Rain = 0
KMC4 221934Z 18013KT 22/02 A2982 RMK A01 T02210023  RH  027%=      5-min Rain = 0
KMC4 221935Z 18012G17KT 22/02 A2982 RMK A01 T02190024  RH  027%=      5-min Rain = 0
KMC4 221936Z 18009KT 22/03 A2982 RMK A01 T02180025  RH  028%=      5-min Rain = 0
KMC4 221937Z 18009KT 22/02 A2982 RMK A01 T02190022  RH  027%=      5-min Rain = 0
KMC4 221938Z 17008KT 22/02 A2981 RMK A01 T02200019  RH  027%=      5-min Rain = 0
KMC4 221939Z 18007KT 22/02 A2981 RMK A01 T02200017  RH  026%=      5-min Rain = 0
KMC4 221940Z 17006KT 22/02 A2981 RMK A01 T02200021  RH  027%=      5-min Rain = 0
KMC4 221941Z 14010KT 22/03 A2981 RMK A01 T02200026  RH  028%=      5-min Rain = 0
KMC4 221942Z 14010KT 22/03 A2981 RMK A01 T02220030  RH  028%=      5-min Rain = 0
KMC4 221943Z 13010KT 22/03 A2981 RMK A01 T02230029  RH  028%=      5-min Rain = 0
KMC4 221944Z 13008KT 22/03 A2981 RMK A01 T02230028  RH  028%=      5-min Rain = 0
KMC4 221945Z 14010KT 22/03 A298 RMK A01 T02240030  RH  028%=      5-min Rain = 0
KMC4 221946Z 15009KT 22/03 A298 RMK A01 T02240028  RH  028%=      5-min Rain = 0
KMC4 221947Z 18008KT 23/03 A298 RMK A01 T02250026  RH  027%=      5-min Rain = 0
KMC4 221948Z 14008KT 22/03 A298 RMK A01 T02230029  RH  028%=      5-min Rain = 0
KMC4 221949Z 15013G19KT 22/03 A298 RMK A01 T02230029  RH  028%=      5-min Rain = 0
KMC4 221950Z 15016KT 23/02 A298 RMK A01 T02260018  RH  025%=      5-min Rain = 0
KMC4 221951Z 16013KT 23/01 A298 RMK A01 T02260014  RH  025%=      5-min Rain = 0
KMC4 221952Z 16018KT 23/02 A2979 RMK A01 T02260016  RH  025%=      5-min Rain = 0
KMC4 221953Z 15013KT 23/02 A2979 RMK A01 T02280017  RH  025%=      5-min Rain = 0
KMC4 221954Z 15014KT 23/02 A2979 RMK A01 T02280019  RH  025%=      5-min Rain = 0
KMC4 221955Z 15016G21KT 23/02 A2979 RMK A01 T02280015  RH  025%=      5-min Rain = 0
KMC4 221956Z 15014G19KT 23/02 A2979 RMK A01 T02300018  RH  025%=      5-min Rain = 0
KMC4 221957Z 16019KT 23/01 A2978 RMK A01 T02320013  RH  024%=      5-min Rain = 0
KMC4 221958Z 16013KT 23/01 A2978 RMK A01 T02330011  RH  023%=      5-min Rain = 0
KMC4 221959Z 15013G18KT 23/01 A2978 RMK A01 T02320014  RH  024%=      5-min Rain = 0
KMC4 222000Z 15017KT 23/01 A2978 RMK A01 T02330011  RH  023%=      5-min Rain = 0
KMC4 222001Z 16017KT 23/01 A2978 RMK A01 T02320009  RH  023%=      5-min Rain = 0
KMC4 222002Z 18016KT 23/01 A2978 RMK A01 T02330005  RH  022%=      5-min Rain = 0
KMC4 222003Z 19013KT 24/M01 A2978 RMK A01 T02361005  RH  020%=      5-min Rain = 0
KMC4 222004Z 18011KT 24/00 A2978 RMK A01 T02370002  RH  021%=      5-min Rain = 0
KMC4 222005Z 18015KT 24/01 A2978 RMK A01 T02380005  RH  021%=      5-min Rain = 0
KMC4 222006Z 18012KT 23/00 A2978 RMK A01 T02340004  RH  022%=      5-min Rain = 0
KMC4 222007Z 19011KT 23/00 A2978 RMK A01 T02300001  RH  022%=      5-min Rain = 0
KMC4 222008Z 18010KT 23/00 A2978 RMK A01 T02300002  RH  022%=      5-min Rain = 0
KMC4 222009Z 20012G19KT 23/00 A2977 RMK A01 T02310003  RH  022%=      5-min Rain = 0
KMC4 222010Z 18018KT 24/00 A2978 RMK A01 T02350002  RH  021%=      5-min Rain = 0
KMC4 222011Z 17018KT 24/00 A2977 RMK A01 T02360000  RH  021%=      5-min Rain = 0
KMC4 222012Z 17015KT 24/00 A2977 RMK A01 T02360003  RH  022%=      5-min Rain = 0
KMC4 222013Z 17014KT 24/00 A2977 RMK A01 T02380000  RH  021%=      5-min Rain = 0
KMC4 222014Z 16018KT 24/M00 A2977 RMK A01 T02371001  RH  021%=      5-min Rain = 0
KMC4 222015Z 17015KT 24/M01 A2977 RMK A01 T02351005  RH  020%=      5-min Rain = 0
KMC4 222016Z 18017G23KT 24/M00 A2977 RMK A01 T02351004  RH  021%=      5-min Rain = 0
KMC4 222017Z 18019G26KT 24/M01 A2977 RMK A01 T02361008  RH  020%=      5-min Rain = 0
KMC4 222018Z 17018KT 24/M01 A2977 RMK A01 T02351010  RH  020%=      5-min Rain = 0
KMC4 222019Z 18016KT 23/M01 A2977 RMK A01 T02341011  RH  020%=      5-min Rain = 0
KMC4 222020Z 19016G21KT 23/M01 A2977 RMK A01 T02331008  RH  020%=      5-min Rain = 0
KMC4 222021Z 18015KT 24/M01 A2977 RMK A01 T02361008  RH  020%=      5-min Rain = 0
KMC4 222022Z 17013KT 24/M01 A2977 RMK A01 T02371010  RH  019%=      5-min Rain = 0
KMC4 222023Z 16013KT 24/M01 A2977 RMK A01 T02361014  RH  019%=      5-min Rain = 0
KMC4 222024Z 18016KT 24/M01 A2976 RMK A01 T02351008  RH  020%=      5-min Rain = 0
KMC4 222025Z 18020KT 24/M01 A2976 RMK A01 T02371007  RH  020%=      5-min Rain = 0
KMC4 222026Z 18018KT 24/M01 A2977 RMK A01 T02361010  RH  019%=      5-min Rain = 0
KMC4 222027Z 20015KT 24/M01 A2976 RMK A01 T02351010  RH  020%=      5-min Rain = 0
KMC4 222028Z 19013KT 23/M01 A2976 RMK A01 T02341012  RH  020%=      5-min Rain = 0
KMC4 222029Z 17016G21KT 23/M01 A2976 RMK A01 T02331010  RH  020%=      5-min Rain = 0
KMC4 222030Z 16018KT 23/M00 A2976 RMK A01 T02341004  RH  021%=      5-min Rain = 0
KMC4 222031Z 16018KT 24/M01 A2976 RMK A01 T02361005  RH  020%=      5-min Rain = 0
KMC4 222032Z 15017KT 24/M00 A2976 RMK A01 T02351004  RH  021%=      5-min Rain = 0
KMC4 222033Z 18015KT 24/M00 A2976 RMK A01 T02351004  RH  021%=      5-min Rain = 0
KMC4 222034Z 17015KT 23/M01 A2976 RMK A01 T02341006  RH  020%=      5-min Rain = 0
KMC4 222035Z 15013G18KT 23/M01 A2976 RMK A01 T02341005  RH  021%=      5-min Rain = 0
KMC4 222036Z 15016KT 23/M00 A2976 RMK A01 T02341004  RH  021%=      5-min Rain = 0
KMC4 222037Z 15017KT 24/M01 A2976 RMK A01 T02361005  RH  020%=      5-min Rain = 0
KMC4 222038Z 17017KT 24/M00 A2975 RMK A01 T02381002  RH  020%=      5-min Rain = 0
KMC4 222039Z 16016G22KT 24/M01 A2975 RMK A01 T02401005  RH  020%=      5-min Rain = 0
KMC4 222040Z 16019KT 24/M01 A2975 RMK A01 T02401007  RH  019%=      5-min Rain = 0
KMC4 222041Z 16015G20KT 24/M01 A2975 RMK A01 T02391008  RH  020%=      5-min Rain = 0
KMC4 222042Z 16014KT 24/M01 A2975 RMK A01 T02381006  RH  020%=      5-min Rain = 0
KMC4 222043Z 16016KT 24/M01 A2975 RMK A01 T02381005  RH  020%=      5-min Rain = 0
KMC4 222044Z 17016KT 24/M01 A2975 RMK A01 T02391006  RH  020%=      5-min Rain = 0
KMC4 222045Z 18016KT 24/M01 A2975 RMK A01 T02381010  RH  019%=      5-min Rain = 0
KMC4 222046Z 17014KT 24/M01 A2975 RMK A01 T02361011  RH  019%=      5-min Rain = 0
KMC4 222047Z 15015KT 24/M01 A2975 RMK A01 T02351010  RH  020%=      5-min Rain = 0
KMC4 222048Z 15014KT 24/M01 A2975 RMK A01 T02351009  RH  020%=      5-min Rain = 0
KMC4 222049Z 16014KT 24/M01 A2975 RMK A01 T02371008  RH  020%=      5-min Rain = 0
KMC4 222050Z 17016KT 24/M01 A2975 RMK A01 T02381010  RH  019%=      5-min Rain = 0
KMC4 222051Z 18014G19KT 24/M01 A2975 RMK A01 T02411009  RH  019%=      5-min Rain = 0
KMC4 222052Z 19019KT 24/M02 A2975 RMK A01 T02431015  RH  018%=      5-min Rain = 0
KMC4 222053Z 19018G23KT 24/M02 A2975 RMK A01 T02431019  RH  017%=      5-min Rain = 0
KMC4 222054Z 17017G22KT 24/M02 A2975 RMK A01 T02421018  RH  018%=      5-min Rain = 0
KMC4 222055Z 16018KT 24/M02 A2975 RMK A01 T02411018  RH  018%=      5-min Rain = 0
KMC4 222056Z 17015G20KT 24/M02 A2975 RMK A01 T02381020  RH  018%=      5-min Rain = 0
KMC4 222057Z 19017KT 24/M02 A2975 RMK A01 T02381022  RH  018%=      5-min Rain = 0
KMC4 222058Z 18013G18KT 24/M03 A2975 RMK A01 T02391026  RH  017%=      5-min Rain = 0
KMC4 222059Z 18015KT 24/M02 A2975 RMK A01 T02411022  RH  017%=      5-min Rain = 0
KMC4 222100Z 18018G23KT 25/M02 A2975 RMK A01 T02451018  RH  017%=      5-min Rain = 0
KMC4 222101Z 19017G22KT 25/M02 A2975 RMK A01 T02461023  RH  017%=      5-min Rain = 0
KMC4 222102Z 18014KT 24/M02 A2975 RMK A01 T02431024  RH  017%=      5-min Rain = 0
KMC4 222103Z 17016KT 24/M02 A2975 RMK A01 T02431023  RH  017%=      5-min Rain = 0
KMC4 222104Z 18017KT 24/M02 A2975 RMK A01 T02441024  RH  017%=      5-min Rain = 0
KMC4 222105Z 17019KT 24/M03 A2974 RMK A01 T02431028  RH  016%=      5-min Rain = 0
KMC4 222106Z 18015G22KT 24/M03 A2975 RMK A01 T02411028  RH  017%=      5-min Rain = 0
KMC4 222107Z 18019KT 24/M03 A2975 RMK A01 T02431026  RH  017%=      5-min Rain = 0
KMC4 222108Z 18015KT 24/M03 A2975 RMK A01 T02441025  RH  017%=      5-min Rain = 0
KMC4 222109Z 19014KT 25/M02 A2975 RMK A01 T02461024  RH  017%=      5-min Rain = 0
KMC4 222110Z 18017G22KT 25/M03 A2974 RMK A01 T02471026  RH  016%=      5-min Rain = 0
KMC4 222111Z 18014KT 25/M02 A2975 RMK A01 T02471023  RH  017%=      5-min Rain = 0
KMC4 222112Z 18016G21KT 25/M02 A2974 RMK A01 T02491024  RH  016%=      5-min Rain = 0
KMC4 222113Z 19015KT 25/M03 A2975 RMK A01 T02491025  RH  016%=      5-min Rain = 0
KMC4 222114Z 19015G21KT 25/M03 A2975 RMK A01 T02471027  RH  016%=      5-min Rain = 0
KMC4 222115Z 18019G25KT 25/M03 A2974 RMK A01 T02461028  RH  016%=      5-min Rain = 0
KMC4 222116Z 18023G28KT 24/M03 A2974 RMK A01 T02441029  RH  016%=      5-min Rain = 0
KMC4 222117Z 17019KT 24/M03 A2974 RMK A01 T02421029  RH  016%=      5-min Rain = 0
KMC4 222118Z 17018G23KT 24/M03 A2974 RMK A01 T02411027  RH  017%=      5-min Rain = 0
KMC4 222119Z 18020KT 24/M03 A2974 RMK A01 T02421028  RH  017%=      5-min Rain = 0
KMC4 222120Z 18019KT 24/M03 A2974 RMK A01 T02421031  RH  016%=      5-min Rain = 0
KMC4 222121Z 18016G22KT 24/M03 A2974 RMK A01 T02411028  RH  017%=      5-min Rain = 0
KMC4 222122Z 19016G22KT 24/M03 A2974 RMK A01 T02431026  RH  017%=      5-min Rain = 0
KMC4 222123Z 20018KT 24/M03 A2974 RMK A01 T02441029  RH  016%=      5-min Rain = 0
KMC4 222124Z 18016KT 24/M03 A2974 RMK A01 T02441030  RH  016%=      5-min Rain = 0
KMC4 222125Z 19013KT 24/M03 A2974 RMK A01 T02431028  RH  016%=      5-min Rain = 0
KMC4 222126Z 18016G21KT 25/M02 A2974 RMK A01 T02451022  RH  017%=      5-min Rain = 0
KMC4 222127Z 15018KT 25/M02 A2974 RMK A01 T02461017  RH  017%=      5-min Rain = 0
KMC4 222128Z 16017KT 25/M02 A2974 RMK A01 T02461017  RH  017%=      5-min Rain = 0
KMC4 222129Z 16022G27KT 25/M02 A2974 RMK A01 T02461020  RH  017%=      5-min Rain = 0
KMC4 222130Z 16021G27KT 24/M02 A2974 RMK A01 T02441023  RH  017%=      5-min Rain = 0
KMC4 222131Z 16022KT 24/M02 A2974 RMK A01 T02431023  RH  017%=      5-min Rain = 0
KMC4 222132Z 16020G27KT 24/M02 A2974 RMK A01 T02421022  RH  017%=      5-min Rain = 0
KMC4 222133Z 17022KT 24/M02 A2974 RMK A01 T02441022  RH  017%=      5-min Rain = 0
KMC4 222134Z 17018KT 24/M02 A2974 RMK A01 T02441023  RH  017%=      5-min Rain = 0
KMC4 222135Z 17018KT 24/M02 A2974 RMK A01 T02431023  RH  017%=      5-min Rain = 0
KMC4 222136Z 16018G25KT 24/M02 A2974 RMK A01 T02421021  RH  017%=      5-min Rain = 0
KMC4 222137Z 17018G23KT 25/M02 A2974 RMK A01 T02451020  RH  017%=      5-min Rain = 0
KMC4 222138Z 16019KT 25/M02 A2974 RMK A01 T02451022  RH  017%=      5-min Rain = 0
KMC4 222139Z 16018KT 25/M02 A2974 RMK A01 T02451023  RH  017%=      5-min Rain = 0
KMC4 222140Z 17021G26KT 24/M02 A2974 RMK A01 T02431023  RH  017%=      5-min Rain = 0
KMC4 222141Z 17018G23KT 24/M02 A2974 RMK A01 T02431019  RH  017%=      5-min Rain = 0
KMC4 222142Z 18019KT 24/M02 A2974 RMK A01 T02431022  RH  017%=      5-min Rain = 0
KMC4 222143Z 18015KT 24/M02 A2974 RMK A01 T02431022  RH  017%=      5-min Rain = 0
KMC4 222144Z 16019KT 25/M02 A2974 RMK A01 T02451022  RH  017%=      5-min Rain = 0
KMC4 222145Z 16017KT 25/M03 A2974 RMK A01 T02451027  RH  016%=      5-min Rain = 0
KMC4 222146Z 16019G26KT 24/M02 A2974 RMK A01 T02441022  RH  017%=      5-min Rain = 0
KMC4 222147Z 17021KT 25/M02 A2974 RMK A01 T02451017  RH  018%=      5-min Rain = 0
KMC4 222148Z 17018KT 24/M02 A2974 RMK A01 T02421018  RH  018%=      5-min Rain = 0
KMC4 222149Z 17016KT 24/M02 A2974 RMK A01 T02411019  RH  018%=      5-min Rain = 0
KMC4 222150Z 17017KT 24/M02 A2974 RMK A01 T02411019  RH  018%=      5-min Rain = 0
KMC4 222151Z 16019KT 24/M02 A2974 RMK A01 T02411018  RH  018%=      5-min Rain = 0
KMC4 222152Z 16017KT 24/M02 A2974 RMK A01 T02411020  RH  018%=      5-min Rain = 0
KMC4 222153Z 16015KT 24/M02 A2974 RMK A01 T02401020  RH  018%=      5-min Rain = 0
KMC4 222154Z 16019KT 24/M02 A2974 RMK A01 T02401019  RH  018%=      5-min Rain = 0
KMC4 222155Z 16018KT 24/M01 A2974 RMK A01 T02411014  RH  018%=      5-min Rain = 0
KMC4 222156Z 16016G22KT 24/M01 A2974 RMK A01 T02421011  RH  019%=      5-min Rain = 0
KMC4 222157Z 16020KT 24/M02 A2973 RMK A01 T02431017  RH  018%=      5-min Rain = 0
KMC4 222158Z 16016KT 24/M02 A2974 RMK A01 T02421016  RH  018%=      5-min Rain = 0
KMC4 222159Z 17016G23KT 24/M01 A2974 RMK A01 T02431014  RH  018%=      5-min Rain = 0
KMC4 222200Z 19017KT 25/M02 A2974 RMK A01 T02451016  RH  018%=      5-min Rain = 0
KMC4 222201Z 19017KT 25/M02 A2974 RMK A01 T02451024  RH  017%=      5-min Rain = 0
KMC4 222202Z 19017KT 24/M03 A2974 RMK A01 T02431025  RH  017%=      5-min Rain = 0
KMC4 222203Z 19012KT 24/M02 A2974 RMK A01 T02431020  RH  017%=      5-min Rain = 0
KMC4 222204Z 17014KT 25/M02 A2974 RMK A01 T02451018  RH  017%=      5-min Rain = 0
KMC4 222205Z 17014KT 25/M02 A2974 RMK A01 T02471018  RH  017%=      5-min Rain = 0
KMC4 222206Z 16017KT 25/M01 A2974 RMK A01 T02451010  RH  018%=      5-min Rain = 0
KMC4 222207Z 15018KT 24/M01 A2973 RMK A01 T02421010  RH  019%=      5-min Rain = 0
KMC4 222208Z 15018G23KT 24/M01 A2973 RMK A01 T02411010  RH  019%=      5-min Rain = 0
KMC4 222209Z 16019KT 24/M01 A2973 RMK A01 T02401009  RH  019%=      5-min Rain = 0
KMC4 222210Z 16016KT 24/M01 A2973 RMK A01 T02411009  RH  019%=      5-min Rain = 0
KMC4 222211Z 15014KT 24/M01 A2973 RMK A01 T02421008  RH  019%=      5-min Rain = 0
KMC4 222212Z 15016KT 24/M01 A2973 RMK A01 T02441009  RH  019%=      5-min Rain = 0
KMC4 222213Z 16017KT 24/M01 A2973 RMK A01 T02441005  RH  019%=      5-min Rain = 0
KMC4 222214Z 16018KT 24/M00 A2973 RMK A01 T02421001  RH  020%=      5-min Rain = 0
KMC4 222215Z 16017KT 24/M00 A2973 RMK A01 T02411002  RH  020%=      5-min Rain = 0
KMC4 222216Z 15015KT 24/M00 A2973 RMK A01 T02391001  RH  020%=      5-min Rain = 0
KMC4 222217Z 16016G21KT 24/00 A2973 RMK A01 T02390001  RH  021%=      5-min Rain = 0
KMC4 222218Z 15014KT 24/00 A2973 RMK A01 T02400002  RH  021%=      5-min Rain = 0
KMC4 222219Z 14017KT 24/01 A2973 RMK A01 T02430005  RH  021%=      5-min Rain = 0
KMC4 222220Z 14017KT 24/00 A2973 RMK A01 T02430003  RH  021%=      5-min Rain = 0
KMC4 222221Z 16016KT 24/00 A2973 RMK A01 T02420004  RH  021%=      5-min Rain = 0
KMC4 222222Z 16013KT 24/00 A2973 RMK A01 T02420003  RH  021%=      5-min Rain = 0
KMC4 222223Z 15014G20KT 24/01 A2973 RMK A01 T02420005  RH  021%=      5-min Rain = 0
KMC4 222224Z 15018KT 24/00 A2973 RMK A01 T024200-0  RH  020%=      5-min Rain = 0
KMC4 222225Z 14020KT 24/M00 A2973 RMK A01 T02401002  RH  020%=      5-min Rain = 0
KMC4 222226Z 14018KT 24/M00 A2973 RMK A01 T02391002  RH  020%=      5-min Rain = 0
KMC4 222227Z 16017KT 24/M00 A2973 RMK A01 T02401003  RH  020%=      5-min Rain = 0
KMC4 222228Z 16017KT 24/M01 A2973 RMK A01 T02401008  RH  019%=      5-min Rain = 0
KMC4 222229Z 16016KT 24/M01 A2973 RMK A01 T02391008  RH  019%=      5-min Rain = 0
KMC4 222230Z 15015G23KT 24/M01 A2973 RMK A01 T02391008  RH  019%=      5-min Rain = 0
KMC4 222231Z 16017KT 24/M01 A2973 RMK A01 T02411008  RH  019%=      5-min Rain = 0
KMC4 222232Z 17017KT 24/M01 A2973 RMK A01 T02401006  RH  020%=      5-min Rain = 0
KMC4 222233Z 16019KT 24/M00 A2972 RMK A01 T02411003  RH  020%=      5-min Rain = 0
KMC4 222234Z 15020KT 24/00 A2972 RMK A01 T024100-0  RH  020%=      5-min Rain = 0
KMC4 222235Z 16016KT 24/M00 A2973 RMK A01 T02421002  RH  020%=      5-min Rain = 0
KMC4 222236Z 17014KT 24/M01 A2973 RMK A01 T02421008  RH  019%=      5-min Rain = 0
KMC4 222237Z 16015G21KT 24/M01 A2973 RMK A01 T02411007  RH  019%=      5-min Rain = 0
KMC4 222238Z 16018G23KT 24/M01 A2972 RMK A01 T02401005  RH  020%=      5-min Rain = 0
KMC4 222239Z 15020KT 24/M00 A2972 RMK A01 T02401004  RH  020%=      5-min Rain = 0
KMC4 222240Z 16017KT 24/M00 A2973 RMK A01 T02401002  RH  020%=      5-min Rain = 0
KMC4 222241Z 16014KT 24/M00 A2973 RMK A01 T02401002  RH  020%=      5-min Rain = 0
KMC4 222242Z 16016KT 24/M01 A2973 RMK A01 T02401006  RH  020%=      5-min Rain = 0
KMC4 222243Z 16016KT 24/M01 A2973 RMK A01 T02391007  RH  020%=      5-min Rain = 0
KMC4 222244Z 16014KT 24/M00 A2973 RMK A01 T02381004  RH  020%=      5-min Rain = 0
KMC4 222245Z 16013G18KT 24/M00 A2973 RMK A01 T02391002  RH  020%=      5-min Rain = 0
KMC4 222246Z 15014KT 24/M00 A2973 RMK A01 T02411001  RH  020%=      5-min Rain = 0
KMC4 222247Z 15014KT 24/M00 A2972 RMK A01 T02411002  RH  020%=      5-min Rain = 0
KMC4 222248Z 14020G26KT 24/M00 A2972 RMK A01 T02401001  RH  020%=      5-min Rain = 0
KMC4 222249Z 14019KT 24/M00 A2972 RMK A01 T02401001  RH  020%=      5-min Rain = 0
KMC4 222250Z 15019G24KT 24/00 A2972 RMK A01 T02390001  RH  021%=      5-min Rain = 0
KMC4 222251Z 16019KT 24/00 A2972 RMK A01 T02390001  RH  021%=      5-min Rain = 0
KMC4 222252Z 16015KT 24/00 A2972 RMK A01 T02390002  RH  021%=      5-min Rain = 0
KMC4 222253Z 15019KT 24/01 A2972 RMK A01 T02390005  RH  021%=      5-min Rain = 0
KMC4 222254Z 16016KT 24/01 A2973 RMK A01 T02390005  RH  021%=      5-min Rain = 0
KMC4 222255Z 16018KT 24/01 A2972 RMK A01 T02390006  RH  022%=      5-min Rain = 0
KMC4 222256Z 16014KT 24/01 A2972 RMK A01 T02380005  RH  022%=      5-min Rain = 0
KMC4 222257Z 16014G19KT 24/01 A2973 RMK A01 T02370005  RH  022%=      5-min Rain = 0
KMC4 222258Z 16015KT 24/01 A2973 RMK A01 T02380006  RH  022%=      5-min Rain = 0
KMC4 222259Z 16017KT 24/01 A2973 RMK A01 T02380006  RH  022%=      5-min Rain = 0
KMC4 222300Z 16016KT 24/01 A2973 RMK A01 T02380005  RH  022%=      5-min Rain = 0
KMC4 222301Z 16013G18KT 24/01 A2973 RMK A01 T02380007  RH  022%=      5-min Rain = 0
KMC4 222302Z 16015KT 24/01 A2972 RMK A01 T02390008  RH  022%=      5-min Rain = 0
KMC4 222303Z 16016KT 24/01 A2972 RMK A01 T02390005  RH  021%=      5-min Rain = 0
KMC4 222304Z 16017KT 24/01 A2972 RMK A01 T02370005  RH  022%=      5-min Rain = 0
KMC4 222305Z 16015KT 24/01 A2972 RMK A01 T02360006  RH  022%=      5-min Rain = 0
KMC4 222306Z 16016KT 24/01 A2972 RMK A01 T02360007  RH  022%=      5-min Rain = 0
KMC4 222307Z 16016KT 24/01 A2972 RMK A01 T02360007  RH  022%=      5-min Rain = 0
KMC4 222308Z 16020KT 24/01 A2972 RMK A01 T02360008  RH  022%=      5-min Rain = 0
KMC4 222309Z 16017KT 24/01 A2972 RMK A01 T02350009  RH  023%=      5-min Rain = 0
KMC4 222310Z 15017KT 24/01 A2972 RMK A01 T02350010  RH  023%=      5-min Rain = 0
KMC4 222311Z 15018KT 24/01 A2972 RMK A01 T02350009  RH  023%=      5-min Rain = 0
KMC4 222312Z 15017KT 23/01 A2972 RMK A01 T02340009  RH  023%=      5-min Rain = 0
KMC4 222313Z 14019KT 23/01 A2972 RMK A01 T02330009  RH  023%=      5-min Rain = 0
KMC4 222314Z 16017KT 23/01 A2972 RMK A01 T02340009  RH  023%=      5-min Rain = 0
KMC4 222315Z 16015G20KT 23/01 A2972 RMK A01 T02340010  RH  023%=      5-min Rain = 0
KMC4 222316Z 16017KT 24/01 A2972 RMK A01 T02350008  RH  022%=      5-min Rain = 0
KMC4 222317Z 17014KT 24/01 A2972 RMK A01 T02350006  RH  022%=      5-min Rain = 0
KMC4 222318Z 17017KT 24/01 A2972 RMK A01 T02350006  RH  022%=      5-min Rain = 0
KMC4 222319Z 16018KT 24/01 A2972 RMK A01 T02350006  RH  022%=      5-min Rain = 0
KMC4 222320Z 16018KT 24/01 A2972 RMK A01 T02350006  RH  022%=      5-min Rain = 0
KMC4 222321Z 16016KT 23/01 A2972 RMK A01 T02340005  RH  022%=      5-min Rain = 0
KMC4 222322Z 15017G22KT 23/01 A2972 RMK A01 T02330008  RH  023%=      5-min Rain = 0
KMC4 222323Z 15019KT 23/01 A2972 RMK A01 T02330007  RH  023%=      5-min Rain = 0
KMC4 222324Z 15016KT 23/01 A2972 RMK A01 T02330007  RH  022%=      5-min Rain = 0
KMC4 222325Z 14018G24KT 23/01 A2972 RMK A01 T02330007  RH  023%=      5-min Rain = 0
KMC4 222326Z 15018KT 23/01 A2972 RMK A01 T02330008  RH  023%=      5-min Rain = 0
KMC4 222327Z 15016KT 23/01 A2972 RMK A01 T02320009  RH  023%=      5-min Rain = 0
KMC4 222328Z 15016G21KT 23/01 A2972 RMK A01 T02320010  RH  023%=      5-min Rain = 0
KMC4 222329Z 16015KT 23/01 A2972 RMK A01 T02320011  RH  023%=      5-min Rain = 0
KMC4 222330Z 17015G22KT 23/01 A2972 RMK A01 T02320012  RH  023%=      5-min Rain = 0
KMC4 222331Z 17017KT 23/01 A2972 RMK A01 T02330012  RH  023%=      5-min Rain = 0
KMC4 222332Z 16019KT 23/01 A2972 RMK A01 T02320011  RH  023%=      5-min Rain = 0
KMC4 222333Z 16019KT 23/01 A2972 RMK A01 T02310011  RH  023%=      5-min Rain = 0
KMC4 222334Z 16018KT 23/01 A2972 RMK A01 T02310011  RH  023%=      5-min Rain = 0
KMC4 222335Z 17016G21KT 23/01 A2972 RMK A01 T02300011  RH  024%=      5-min Rain = 0
KMC4 222336Z 16019KT 23/01 A2972 RMK A01 T02300012  RH  024%=      5-min Rain = 0
KMC4 222337Z 16016KT 23/01 A2972 RMK A01 T02300012  RH  024%=      5-min Rain = 0
KMC4 222338Z 15015G20KT 23/01 A2972 RMK A01 T02300011  RH  024%=      5-min Rain = 0
KMC4 222339Z 16014KT 23/01 A2972 RMK A01 T02300011  RH  024%=      5-min Rain = 0
KMC4 222340Z 16015G20KT 23/01 A2971 RMK A01 T02300010  RH  023%=      5-min Rain = 0
KMC4 222341Z 16018KT 23/01 A2972 RMK A01 T02300009  RH  023%=      5-min Rain = 0
KMC4 222342Z 16019KT 23/01 A2971 RMK A01 T02290010  RH  024%=      5-min Rain = 0
KMC4 222343Z 16018G23KT 23/01 A2971 RMK A01 T02290011  RH  024%=      5-min Rain = 0
KMC4 222344Z 17017KT 23/01 A2971 RMK A01 T02280010  RH  024%=      5-min Rain = 0
KMC4 222345Z 17019KT 23/01 A2972 RMK A01 T02280010  RH  024%=      5-min Rain = 0
KMC4 222346Z 17018KT 23/01 A2972 RMK A01 T02270011  RH  024%=      5-min Rain = 0
KMC4 222347Z 16015KT 23/01 A2971 RMK A01 T02270012  RH  024%=      5-min Rain = 0
KMC4 222348Z 16015KT 23/01 A2972 RMK A01 T02270013  RH  024%=      5-min Rain = 0
KMC4 222349Z 16017KT 23/01 A2972 RMK A01 T02260014  RH  025%=      5-min Rain = 0
KMC4 222350Z 16017KT 23/02 A2972 RMK A01 T02270017  RH  025%=      5-min Rain = 0
KMC4 222351Z 15018G23KT 23/02 A2972 RMK A01 T02250019  RH  026%=      5-min Rain = 0
KMC4 222352Z 16019KT 23/02 A2971 RMK A01 T02250022  RH  026%=      5-min Rain = 0
KMC4 222353Z 14017KT 22/03 A2972 RMK A01 T02230026  RH  027%=      5-min Rain = 0
KMC4 222354Z 14017KT 22/04 A2972 RMK A01 T02220038  RH  030%=      5-min Rain = 0
KMC4 222355Z 14017KT 22/04 A2972 RMK A01 T02210043  RH  031%=      5-min Rain = 0
KMC4 222356Z 13017KT 22/04 A2972 RMK A01 T02200044  RH  032%=      5-min Rain = 0
KMC4 222357Z 14017KT 22/04 A2972 RMK A01 T02190044  RH  032%=      5-min Rain = 0
KMC4 222358Z 14013KT 22/05 A2972 RMK A01 T02190045  RH  032%=      5-min Rain = 0
KMC4 222359Z 14013KT 22/05 A2972 RMK A01 T02190046  RH  032%=      5-min Rain = 0
KMC4 230000Z 15012KT 22/05 A2972 RMK A01 T02190048  RH  033%=      5-min Rain = 0
KMC4 230001Z 14018KT 22/05 A2972 RMK A01 T02180048  RH  033%=      5-min Rain = 0
KMC4 230002Z 14016KT 22/05 A2972 RMK A01 T02170049  RH  033%=      5-min Rain = 0
KMC4 230003Z 14015KT 22/05 A2972 RMK A01 T02160050  RH  034%=      5-min Rain = 0
KMC4 230004Z 13013KT 22/05 A2972 RMK A01 T02160050  RH  034%=      5-min Rain = 0
KMC4 230005Z 14016KT 22/05 A2972 RMK A01 T02150050  RH  034%=      5-min Rain = 0
KMC4 230006Z 14018KT 22/05 A2972 RMK A01 T02150049  RH  034%=      5-min Rain = 0
KMC4 230007Z 14016KT 21/05 A2972 RMK A01 T02140050  RH  034%=      5-min Rain = 0
KMC4 230008Z 14015KT 21/05 A2972 RMK A01 T02140050  RH  034%=      5-min Rain = 0
KMC4 230009Z 14017KT 21/05 A2972 RMK A01 T02130049  RH  034%=      5-min Rain = 0
KMC4 230010Z 14017KT 21/05 A2972 RMK A01 T02130049  RH  034%=      5-min Rain = 0
KMC4 230011Z 14014KT 21/05 A2972 RMK A01 T02130050  RH  034%=      5-min Rain = 0
KMC4 230012Z 13014G20KT 21/05 A2972 RMK A01 T02120050  RH  035%=      5-min Rain = 0
KMC4 230013Z 14017KT 21/05 A2972 RMK A01 T02120050  RH  035%=      5-min Rain = 0
KMC4 230014Z 13018KT 21/05 A2972 RMK A01 T02110050  RH  035%=      5-min Rain = 0
KMC4 230015Z 13015KT 21/05 A2972 RMK A01 T02110050  RH  035%=      5-min Rain = 0
KMC4 230016Z 13017KT 21/05 A2971 RMK A01 T02100050  RH  035%=      5-min Rain = 0
KMC4 230017Z 13016KT 21/05 A2972 RMK A01 T02100049  RH  035%=      5-min Rain = 0
KMC4 230018Z 13015KT 21/05 A2972 RMK A01 T02090049  RH  035%=      5-min Rain = 0
KMC4 230019Z 13016KT 21/05 A2972 RMK A01 T02090050  RH  035%=      5-min Rain = 0
KMC4 230020Z 13015KT 21/05 A2972 RMK A01 T02090050  RH  035%=      5-min Rain = 0
KMC4 230021Z 13015KT 21/05 A2972 RMK A01 T02080051  RH  036%=      5-min Rain = 0
KMC4 230022Z 13013KT 21/05 A2972 RMK A01 T02070051  RH  036%=      5-min Rain = 0
KMC4 230023Z 13015KT 21/05 A2971 RMK A01 T02060051  RH  036%=      5-min Rain = 0
KMC4 230024Z 13016KT 21/05 A2971 RMK A01 T02050051  RH  036%=      5-min Rain = 0
KMC4 230025Z 13015KT 21/05 A2972 RMK A01 T02050052  RH  037%=      5-min Rain = 0
KMC4 230026Z 14014KT 20/05 A2972 RMK A01 T02040052  RH  037%=      5-min Rain = 0
KMC4 230027Z 13018KT 20/05 A2971 RMK A01 T02030052  RH  037%=      5-min Rain = 0
KMC4 230028Z 13017KT 20/05 A2971 RMK A01 T02030052  RH  037%=      5-min Rain = 0
KMC4 230029Z 13016KT 20/05 A2971 RMK A01 T02030052  RH  037%=      5-min Rain = 0
KMC4 230030Z 13016G22KT 20/05 A2971 RMK A01 T02020052  RH  037%=      5-min Rain = 0
KMC4 230031Z 13015KT 20/05 A2971 RMK A01 T02010052  RH  038%=      5-min Rain = 0
KMC4 230032Z 13016KT 20/05 A2971 RMK A01 T02010052  RH  038%=      5-min Rain = 0
KMC4 230033Z 13016KT 20/05 A2971 RMK A01 T02000052  RH  038%=      5-min Rain = 0
KMC4 230034Z 13013KT 20/05 A2971 RMK A01 T02000052  RH  038%=      5-min Rain = 0
KMC4 230035Z 14014KT 20/05 A2971 RMK A01 T01990052  RH  038%=      5-min Rain = 0
KMC4 230036Z 14014KT 20/05 A2971 RMK A01 T01980052  RH  038%=      5-min Rain = 0
KMC4 230037Z 14015KT 20/05 A2971 RMK A01 T01970052  RH  039%=      5-min Rain = 0
KMC4 230038Z 13015KT 20/05 A2971 RMK A01 T01970052  RH  039%=      5-min Rain = 0
KMC4 230039Z 13016KT 20/05 A2971 RMK A01 T01960052  RH  039%=      5-min Rain = 0
KMC4 230040Z 13014KT 20/05 A2971 RMK A01 T01960052  RH  039%=      5-min Rain = 0
KMC4 230041Z 14015KT 20/05 A2971 RMK A01 T01960051  RH  039%=      5-min Rain = 0
KMC4 230042Z 14014KT 20/05 A2971 RMK A01 T01950051  RH  039%=      5-min Rain = 0
KMC4 230043Z 14013G19KT 19/05 A2971 RMK A01 T01940052  RH  039%=      5-min Rain = 0
KMC4 230044Z 14016KT 19/05 A2971 RMK A01 T01940051  RH  039%=      5-min Rain = 0
KMC4 230045Z 14015KT 19/05 A2971 RMK A01 T01930051  RH  039%=      5-min Rain = 0
KMC4 230046Z 14016KT 19/05 A2971 RMK A01 T01930051  RH  039%=      5-min Rain = 0
KMC4 230047Z 14016KT 19/05 A2971 RMK A01 T01930050  RH  039%=      5-min Rain = 0
KMC4 230048Z 14015KT 19/05 A2971 RMK A01 T01920050  RH  039%=      5-min Rain = 0
KMC4 230049Z 14014KT 19/05 A2971 RMK A01 T01920049  RH  039%=      5-min Rain = 0
KMC4 230050Z 13015KT 19/05 A2971 RMK A01 T01910049  RH  039%=      5-min Rain = 0
KMC4 230051Z 13013KT 19/05 A2971 RMK A01 T01910049  RH  039%=      5-min Rain = 0
KMC4 230052Z 13014KT 19/05 A2971 RMK A01 T01900048  RH  039%=      5-min Rain = 0
KMC4 230053Z 13012KT 19/05 A2971 RMK A01 T01890048  RH  039%=      5-min Rain = 0
KMC4 230054Z 13013KT 19/05 A2971 RMK A01 T01890048  RH  039%=      5-min Rain = 0
KMC4 230055Z 13013KT 19/05 A2971 RMK A01 T01880048  RH  039%=      5-min Rain = 0
KMC4 230056Z 13012KT 19/05 A2971 RMK A01 T01880047  RH  039%=      5-min Rain = 0
KMC4 230057Z 13013KT 19/05 A2971 RMK A01 T01880047  RH  039%=      5-min Rain = 0
KMC4 230058Z 13014KT 19/05 A2971 RMK A01 T01870047  RH  040%=      5-min Rain = 0
KMC4 230059Z 13014KT 19/05 A2971 RMK A01 T01870046  RH  039%=      5-min Rain = 0
KMC4 230100Z 13013KT 19/05 A2971 RMK A01 T01870046  RH  039%=      5-min Rain = 0
KMC4 230101Z 13011KT 19/05 A2971 RMK A01 T01860045  RH  039%=      5-min Rain = 0
KMC4 230102Z 13010KT 19/05 A2971 RMK A01 T01850045  RH  039%=      5-min Rain = 0
KMC4 230103Z 13010KT 18/05 A2971 RMK A01 T01840045  RH  040%=      5-min Rain = 0
KMC4 230104Z 13011KT 18/04 A2971 RMK A01 T01840044  RH  040%=      5-min Rain = 0
KMC4 230105Z 13010KT 18/04 A2971 RMK A01 T01840044  RH  040%=      5-min Rain = 0
KMC4 230106Z 13010KT 18/04 A2971 RMK A01 T01830044  RH  040%=      5-min Rain = 0
KMC4 230107Z 12011KT 18/04 A2971 RMK A01 T01830044  RH  040%=      5-min Rain = 0
KMC4 230108Z 13011KT 18/04 A2971 RMK A01 T01820044  RH  040%=      5-min Rain = 0
KMC4 230109Z 12012KT 18/04 A2971 RMK A01 T01820044  RH  040%=      5-min Rain = 0
KMC4 230110Z 13013KT 18/04 A2971 RMK A01 T01820043  RH  040%=      5-min Rain = 0
KMC4 230111Z 13011KT 18/04 A2971 RMK A01 T01820042  RH  040%=      5-min Rain = 0
KMC4 230112Z 13012KT 18/04 A2971 RMK A01 T01820042  RH  040%=      5-min Rain = 0
KMC4 230113Z 13013KT 18/04 A2971 RMK A01 T01810041  RH  039%=      5-min Rain = 0
KMC4 230114Z 13012KT 18/04 A2972 RMK A01 T01810040  RH  039%=      5-min Rain = 0
KMC4 230115Z 13012KT 18/04 A2971 RMK A01 T01810040  RH  039%=      5-min Rain = 0
KMC4 230116Z 13013KT 18/04 A2971 RMK A01 T01810040  RH  039%=      5-min Rain = 0
KMC4 230117Z 13011KT 18/04 A2971 RMK A01 T01810040  RH  039%=      5-min Rain = 0
KMC4 230118Z 13013KT 18/04 A2971 RMK A01 T01800039  RH  039%=      5-min Rain = 0
KMC4 230119Z 13012KT 18/04 A2971 RMK A01 T01800038  RH  039%=      5-min Rain = 0
KMC4 230120Z 13011KT 18/04 A2971 RMK A01 T01800038  RH  039%=      5-min Rain = 0
KMC4 230121Z 13012KT 18/04 A2971 RMK A01 T01790037  RH  039%=      5-min Rain = 0
KMC4 230122Z 12012KT 18/04 A2971 RMK A01 T01780037  RH  039%=      5-min Rain = 0
KMC4 230123Z 13013KT 18/04 A2971 RMK A01 T01780036  RH  039%=      5-min Rain = 0
KMC4 230124Z 13012KT 18/04 A2971 RMK A01 T01780036  RH  039%=      5-min Rain = 0
KMC4 230125Z 13014KT 18/04 A2971 RMK A01 T01780036  RH  039%=      5-min Rain = 0
KMC4 230126Z 13013KT 18/04 A2971 RMK A01 T01770035  RH  039%=      5-min Rain = 0
KMC4 230127Z 13011KT 18/04 A2971 RMK A01 T01780035  RH  039%=      5-min Rain = 0
KMC4 230128Z 13013KT 18/04 A2971 RMK A01 T01780035  RH  039%=      5-min Rain = 0
KMC4 230129Z 13012KT 18/04 A2971 RMK A01 T01770035  RH  039%=      5-min Rain = 0
KMC4 230130Z 13012KT 18/04 A2971 RMK A01 T01760035  RH  039%=      5-min Rain = 0
KMC4 230131Z 13012KT 18/04 A2971 RMK A01 T01760035  RH  039%=      5-min Rain = 0
KMC4 230132Z 13013KT 18/04 A297 RMK A01 T01750036  RH  039%=      5-min Rain = 0
KMC4 230133Z 13011KT 18/04 A297 RMK A01 T01750037  RH  040%=      5-min Rain = 0
KMC4 230134Z 13011KT 18/04 A297 RMK A01 T01750037  RH  040%=      5-min Rain = 0
KMC4 230135Z 13013KT 18/04 A297 RMK A01 T01750038  RH  040%=      5-min Rain = 0
KMC4 230136Z 12012KT 17/04 A297 RMK A01 T01740038  RH  040%=      5-min Rain = 0
KMC4 230137Z 12012KT 17/04 A297 RMK A01 T01740039  RH  040%=      5-min Rain = 0
KMC4 230138Z 12012KT 17/04 A297 RMK A01 T01740038  RH  040%=      5-min Rain = 0
KMC4 230139Z 13013KT 17/04 A297 RMK A01 T01740039  RH  041%=      5-min Rain = 0
KMC4 230140Z 12012KT 17/04 A297 RMK A01 T01740040  RH  041%=      5-min Rain = 0
KMC4 230141Z 13013KT 17/04 A297 RMK A01 T01740040  RH  041%=      5-min Rain = 0
KMC4 230142Z 12013KT 17/04 A297 RMK A01 T01740041  RH  041%=      5-min Rain = 0
KMC4 230143Z 13011KT 17/04 A297 RMK A01 T01740041  RH  041%=      5-min Rain = 0
KMC4 230144Z 13012KT 17/04 A297 RMK A01 T01730041  RH  041%=      5-min Rain = 0
KMC4 230145Z 13011KT 17/04 A297 RMK A01 T01730041  RH  042%=      5-min Rain = 0
KMC4 230146Z 13012KT 17/04 A297 RMK A01 T01720042  RH  042%=      5-min Rain = 0
KMC4 230147Z 13012KT 17/04 A297 RMK A01 T01720042  RH  042%=      5-min Rain = 0
KMC4 230148Z 12011KT 17/04 A297 RMK A01 T01720042  RH  042%=      5-min Rain = 0
KMC4 230149Z 13011KT 17/04 A297 RMK A01 T01720043  RH  042%=      5-min Rain = 0
KMC4 230150Z 13011KT 17/04 A297 RMK A01 T01710043  RH  043%=      5-min Rain = 0
KMC4 230151Z 12012KT 17/04 A297 RMK A01 T01710044  RH  043%=      5-min Rain = 0
KMC4 230152Z 13012KT 17/04 A297 RMK A01 T01700044  RH  043%=      5-min Rain = 0
KMC4 230153Z 13011KT 17/04 A297 RMK A01 T01700044  RH  043%=      5-min Rain = 0
KMC4 230154Z 12013KT 17/05 A297 RMK A01 T01700045  RH  043%=      5-min Rain = 0
KMC4 230155Z 12011KT 17/05 A297 RMK A01 T01700045  RH  043%=      5-min Rain = 0
KMC4 230156Z 12013KT 17/05 A297 RMK A01 T01690045  RH  044%=      5-min Rain = 0
KMC4 230157Z 13011KT 17/05 A297 RMK A01 T01690045  RH  044%=      5-min Rain = 0
KMC4 230158Z 12013KT 17/05 A297 RMK A01 T01700045  RH  044%=      5-min Rain = 0
KMC4 230159Z 13013KT 17/05 A297 RMK A01 T01700046  RH  044%=      5-min Rain = 0
KMC4 230200Z 12011KT 17/05 A297 RMK A01 T01700046  RH  044%=      5-min Rain = 0
KMC4 230201Z 12014KT 17/05 A297 RMK A01 T01700047  RH  044%=      5-min Rain = 0
KMC4 230202Z 12013KT 17/05 A297 RMK A01 T01700047  RH  044%=      5-min Rain = 0
KMC4 230203Z 13012KT 17/05 A297 RMK A01 T01700047  RH  044%=      5-min Rain = 0
KMC4 230204Z 12013KT 17/05 A297 RMK A01 T01690047  RH  044%=      5-min Rain = 0
KMC4 230205Z 12014KT 17/05 A2969 RMK A01 T01690047  RH  044%=      5-min Rain = 0
KMC4 230206Z 12011KT 17/05 A2969 RMK A01 T01700047  RH  044%=      5-min Rain = 0
KMC4 230207Z 12011G16KT 17/05 A2969 RMK A01 T01690047  RH  044%=      5-min Rain = 0
KMC4 230208Z 12012KT 17/05 A2969 RMK A01 T01700048  RH  044%=      5-min Rain = 0
KMC4 230209Z 12012KT 17/05 A2969 RMK A01 T01690048  RH  045%=      5-min Rain = 0
KMC4 230210Z 12013KT 17/05 A2969 RMK A01 T01690048  RH  045%=      5-min Rain = 0
KMC4 230211Z 12013KT 17/05 A2969 RMK A01 T01690049  RH  045%=      5-min Rain = 0
KMC4 230212Z 12015KT 17/05 A2969 RMK A01 T01690049  RH  045%=      5-min Rain = 0
KMC4 230213Z 12012KT 17/05 A297 RMK A01 T01690050  RH  045%=      5-min Rain = 0
KMC4 230214Z 13012KT 17/05 A297 RMK A01 T01690050  RH  045%=      5-min Rain = 0
KMC4 230215Z 13013KT 17/05 A297 RMK A01 T01690051  RH  045%=      5-min Rain = 0
KMC4 230216Z 12012KT 17/05 A297 RMK A01 T01680051  RH  046%=      5-min Rain = 0
KMC4 230217Z 13014KT 17/05 A297 RMK A01 T01680051  RH  046%=      5-min Rain = 0
KMC4 230218Z 12013KT 17/05 A297 RMK A01 T01680051  RH  046%=      5-min Rain = 0
KMC4 230219Z 13012KT 17/05 A297 RMK A01 T01670052  RH  046%=      5-min Rain = 0
KMC4 230220Z 13013KT 17/05 A297 RMK A01 T01670052  RH  047%=      5-min Rain = 0
KMC4 230221Z 13012KT 17/05 A297 RMK A01 T01670052  RH  047%=      5-min Rain = 0
KMC4 230222Z 13013KT 17/05 A297 RMK A01 T01670053  RH  047%=      5-min Rain = 0
KMC4 230223Z 13013KT 17/05 A297 RMK A01 T01660053  RH  047%=      5-min Rain = 0
KMC4 230224Z 13011KT 17/05 A297 RMK A01 T01660054  RH  047%=      5-min Rain = 0
KMC4 230225Z 13014KT 17/05 A297 RMK A01 T01660054  RH  047%=      5-min Rain = 0
KMC4 230226Z 13012KT 17/06 A297 RMK A01 T01660055  RH  048%=      5-min Rain = 0
KMC4 230227Z 12012KT 17/06 A297 RMK A01 T01660055  RH  048%=      5-min Rain = 0
KMC4 230228Z 13012KT 17/06 A297 RMK A01 T01650055  RH  048%=      5-min Rain = 0
KMC4 230229Z 12012KT 17/06 A297 RMK A01 T01650055  RH  048%=      5-min Rain = 0
KMC4 230230Z 13012KT 17/06 A297 RMK A01 T01650055  RH  048%=      5-min Rain = 0
KMC4 230231Z 12012KT 17/06 A297 RMK A01 T01650056  RH  048%=      5-min Rain = 0
KMC4 230232Z 13013KT 17/06 A297 RMK A01 T01650056  RH  049%=      5-min Rain = 0
KMC4 230233Z 12013KT 17/06 A297 RMK A01 T01650056  RH  049%=      5-min Rain = 0
KMC4 230234Z 13011KT 17/06 A297 RMK A01 T01650056  RH  049%=      5-min Rain = 0
KMC4 230235Z 13012KT 17/06 A297 RMK A01 T01650057  RH  049%=      5-min Rain = 0
KMC4 230236Z 13012KT 17/06 A297 RMK A01 T01650057  RH  049%=      5-min Rain = 0
KMC4 230237Z 13012KT 16/06 A297 RMK A01 T01640057  RH  049%=      5-min Rain = 0
KMC4 230238Z 12011KT 16/06 A297 RMK A01 T01640057  RH  049%=      5-min Rain = 0
KMC4 230239Z 12012KT 16/06 A297 RMK A01 T01640058  RH  049%=      5-min Rain = 0
KMC4 230240Z 13013KT 16/06 A297 RMK A01 T01640058  RH  049%=      5-min Rain = 0
KMC4 230241Z 13013KT 17/06 A297 RMK A01 T01650059  RH  049%=      5-min Rain = 0
KMC4 230242Z 12013KT 17/06 A297 RMK A01 T01660059  RH  049%=      5-min Rain = 0
KMC4 230243Z 12012KT 17/06 A297 RMK A01 T01650059  RH  049%=      5-min Rain = 0
KMC4 230244Z 13013KT 17/06 A297 RMK A01 T01650059  RH  050%=      5-min Rain = 0
KMC4 230245Z 12013KT 17/06 A297 RMK A01 T01650059  RH  050%=      5-min Rain = 0
KMC4 230246Z 12012KT 17/06 A297 RMK A01 T01650060  RH  050%=      5-min Rain = 0
KMC4 230247Z 12011KT 17/06 A297 RMK A01 T01650060  RH  050%=      5-min Rain = 0
KMC4 230248Z 13012KT 17/06 A297 RMK A01 T01650060  RH  050%=      5-min Rain = 0
KMC4 230249Z 13012KT 16/06 A297 RMK A01 T01640061  RH  050%=      5-min Rain = 0
KMC4 230250Z 12013KT 16/06 A297 RMK A01 T01640061  RH  051%=      5-min Rain = 0
KMC4 230251Z 12013KT 16/06 A297 RMK A01 T01640062  RH  051%=      5-min Rain = 0
KMC4 230252Z 12013KT 16/06 A297 RMK A01 T01640062  RH  051%=      5-min Rain = 0
KMC4 230253Z 12013KT 16/06 A297 RMK A01 T01640062  RH  051%=      5-min Rain = 0
KMC4 230254Z 13012KT 16/06 A297 RMK A01 T01640062  RH  051%=      5-min Rain = 0
KMC4 230255Z 12012KT 16/06 A297 RMK A01 T01630062  RH  051%=      5-min Rain = 0
KMC4 230256Z 12011KT 16/06 A297 RMK A01 T01630063  RH  051%=      5-min Rain = 0
KMC4 230257Z 12012KT 16/06 A297 RMK A01 T01630063  RH  051%=      5-min Rain = 0
KMC4 230258Z 12013KT 16/06 A2969 RMK A01 T01630063  RH  052%=      5-min Rain = 0
KMC4 230259Z 12014KT 16/06 A2969 RMK A01 T01620063  RH  052%=      5-min Rain = 0
KMC4 230300Z 12013KT 16/06 A2969 RMK A01 T01640064  RH  052%=      5-min Rain = 0
KMC4 230301Z 12013KT 16/06 A297 RMK A01 T01640064  RH  051%=      5-min Rain = 0
KMC4 230302Z 12012KT 16/06 A2969 RMK A01 T01640064  RH  052%=      5-min Rain = 0
KMC4 230303Z 12012KT 16/06 A2969 RMK A01 T01640064  RH  052%=      5-min Rain = 0
KMC4 230304Z 12012KT 16/06 A2969 RMK A01 T01630064  RH  052%=      5-min Rain = 0
KMC4 230305Z 12013KT 16/07 A2969 RMK A01 T01630065  RH  052%=      5-min Rain = 0
KMC4 230306Z 12015KT 16/07 A2969 RMK A01 T01630065  RH  052%=      5-min Rain = 0
KMC4 230307Z 12014KT 16/07 A2969 RMK A01 T01630065  RH  052%=      5-min Rain = 0
KMC4 230308Z 12016KT 16/07 A2969 RMK A01 T01630066  RH  052%=      5-min Rain = 0
KMC4 230309Z 12013KT 16/07 A2969 RMK A01 T01630066  RH  052%=      5-min Rain = 0
KMC4 230310Z 12012KT 16/07 A2969 RMK A01 T01630065  RH  052%=      5-min Rain = 0
KMC4 230311Z 12012KT 16/07 A2969 RMK A01 T01630066  RH  052%=      5-min Rain = 0
KMC4 230312Z 12012KT 16/07 A297 RMK A01 T01630066  RH  052%=      5-min Rain = 0
KMC4 230313Z 13011KT 16/07 A297 RMK A01 T01630066  RH  053%=      5-min Rain = 0
KMC4 230314Z 12013KT 16/07 A297 RMK A01 T01620066  RH  053%=      5-min Rain = 0
KMC4 230315Z 12013KT 16/07 A297 RMK A01 T01620067  RH  053%=      5-min Rain = 0
KMC4 230316Z 12013KT 16/07 A2969 RMK A01 T01620067  RH  053%=      5-min Rain = 0
KMC4 230317Z 12013KT 16/07 A2969 RMK A01 T01620067  RH  053%=      5-min Rain = 0
KMC4 230318Z 11012KT 16/07 A2969 RMK A01 T01620067  RH  053%=      5-min Rain = 0
KMC4 230319Z 12013KT 16/07 A2969 RMK A01 T01620068  RH  053%=      5-min Rain = 0
KMC4 230320Z 12011KT 16/07 A297 RMK A01 T01630068  RH  053%=      5-min Rain = 0
KMC4 230321Z 12012KT 16/07 A297 RMK A01 T01630068  RH  053%=      5-min Rain = 0
KMC4 230322Z 12012KT 16/07 A297 RMK A01 T01620068  RH  054%=      5-min Rain = 0
KMC4 230323Z 12012KT 16/07 A297 RMK A01 T01610068  RH  054%=      5-min Rain = 0
KMC4 230324Z 12010KT 16/07 A297 RMK A01 T01610068  RH  054%=      5-min Rain = 0
KMC4 230325Z 11010KT 16/07 A297 RMK A01 T01600068  RH  054%=      5-min Rain = 0
KMC4 230326Z 12010KT 16/07 A297 RMK A01 T01600068  RH  055%=      5-min Rain = 0
KMC4 230327Z 12008KT 16/07 A297 RMK A01 T01600069  RH  055%=      5-min Rain = 0
KMC4 230328Z 12007KT 16/07 A297 RMK A01 T01590068  RH  055%=      5-min Rain = 0
KMC4 230329Z 11007KT 16/07 A297 RMK A01 T01580068  RH  055%=      5-min Rain = 0
KMC4 230330Z 10009KT 16/07 A297 RMK A01 T01580069  RH  056%=      5-min Rain = 0
KMC4 230331Z 10009KT 16/07 A2969 RMK A01 T01580069  RH  055%=      5-min Rain = 0
KMC4 230332Z 09008KT 16/07 A297 RMK A01 T01590070  RH  055%=      5-min Rain = 0
KMC4 230333Z 12010KT 16/07 A297 RMK A01 T01600070  RH  055%=      5-min Rain = 0
KMC4 230334Z 13008KT 16/07 A297 RMK A01 T01600071  RH  055%=      5-min Rain = 0
KMC4 230335Z 14006KT 16/07 A2971 RMK A01 T01600071  RH  055%=      5-min Rain = 0
KMC4 230336Z 16006KT 16/07 A2972 RMK A01 T01610071  RH  055%=      5-min Rain = 0
KMC4 230337Z 17008KT 16/07 A2972 RMK A01 T01600072  RH  056%=      5-min Rain = 0
KMC4 230338Z 16009KT 16/07 A2971 RMK A01 T01600073  RH  056%=      5-min Rain = 0
KMC4 230339Z 16005KT 16/08 A297 RMK A01 T01610076  RH  057%=      5-min Rain = 0
KMC4 230340Z 12006KT 16/08 A297 RMK A01 T01620075  RH  056%=      5-min Rain = 0
KMC4 230341Z 11006KT 16/07 A297 RMK A01 T01600072  RH  056%=      5-min Rain = 0
KMC4 230342Z 12007KT 16/08 A297 RMK A01 T01590075  RH  057%=      5-min Rain = 0
KMC4 230343Z 13011KT 16/08 A297 RMK A01 T01590076  RH  058%=      5-min Rain = 0
KMC4 230344Z 11011KT 16/08 A2971 RMK A01 T01590076  RH  058%=      5-min Rain = 0
KMC4 230345Z 13011KT 16/08 A2971 RMK A01 T01590077  RH  058%=      5-min Rain = 0
KMC4 230346Z 13009KT 16/08 A2971 RMK A01 T01590078  RH  058%=      5-min Rain = 0
KMC4 230347Z 14009KT 16/08 A2971 RMK A01 T01590078  RH  059%=      5-min Rain = 0
KMC4 230348Z 13011KT 16/08 A2971 RMK A01 T01580081  RH  060%=      5-min Rain = 0
KMC4 230349Z 13012KT 16/08 A297 RMK A01 T01590082  RH  060%=      5-min Rain = 0
KMC4 230350Z 12012KT 16/08 A297 RMK A01 T01580083  RH  061%=      5-min Rain = 0
KMC4 230351Z 11012KT 16/08 A2969 RMK A01 T01570083  RH  061%=      5-min Rain = 0
KMC4 230352Z 12013KT 16/08 A2969 RMK A01 T01570083  RH  062%=      5-min Rain = 0
KMC4 230353Z 12014KT 16/09 A2969 RMK A01 T01570085  RH  062%=      5-min Rain = 0
KMC4 230354Z 12011KT 16/09 A2969 RMK A01 T01570085  RH  062%=      5-min Rain = 0
KMC4 230355Z 12012G17KT 16/09 A2969 RMK A01 T01570086  RH  063%=      5-min Rain = 0
KMC4 230356Z 13015KT 16/09 A2969 RMK A01 T01570087  RH  063%=      5-min Rain = 0
KMC4 230357Z 14015KT 16/09 A297 RMK A01 T01570088  RH  063%=      5-min Rain = 0
KMC4 230358Z 15014KT 16/09 A2971 RMK A01 T01580088  RH  063%=      5-min Rain = 0
KMC4 230359Z 16011KT 16/09 A2971 RMK A01 T01580088  RH  063%=      5-min Rain = 0
KMC4 230400Z 16013KT 16/09 A2971 RMK A01 T01570088  RH  064%=      5-min Rain = 0
KMC4 230401Z 16009KT 16/09 A2971 RMK A01 T01570089  RH  064%=      5-min Rain = 0
KMC4 230402Z 15010KT 16/09 A297 RMK A01 T01560089  RH  064%=      5-min Rain = 0
KMC4 230403Z 15009KT 16/09 A297 RMK A01 T01560089  RH  064%=      5-min Rain = 0
KMC4 230404Z 15010KT 16/09 A297 RMK A01 T01560089  RH  064%=      5-min Rain = 0
KMC4 230405Z 14011KT 16/09 A297 RMK A01 T01560088  RH  064%=      5-min Rain = 0
KMC4 230406Z 14012KT 16/09 A297 RMK A01 T01550089  RH  065%=      5-min Rain = 0
KMC4 230407Z 13013G18KT 16/09 A297 RMK A01 T01550089  RH  065%=      5-min Rain = 0
KMC4 230408Z 13016KT 16/09 A297 RMK A01 T01550089  RH  065%=      5-min Rain = 0
KMC4 230409Z 14017KT 15/09 A297 RMK A01 T01540090  RH  065%=      5-min Rain = 0
KMC4 230410Z 13017KT 15/09 A2969 RMK A01 T01540090  RH  066%=      5-min Rain = 0
KMC4 230411Z 13020KT 15/09 A2969 RMK A01 T01530091  RH  066%=      5-min Rain = 0
KMC4 230412Z 13021KT 15/09 A2968 RMK A01 T01530091  RH  066%=      5-min Rain = 0
KMC4 230413Z 13021KT 15/09 A2968 RMK A01 T01540092  RH  066%=      5-min Rain = 0
KMC4 230414Z 13021KT 15/09 A2968 RMK A01 T01540092  RH  067%=      5-min Rain = 0
KMC4 230415Z 14019G24KT 15/09 A2969 RMK A01 T01540093  RH  067%=      5-min Rain = 0
KMC4 230416Z 14023G31KT 15/09 A2969 RMK A01 T01540093  RH  067%=      5-min Rain = 0
KMC4 230417Z 14022G27KT 15/10 A2969 RMK A01 T01540095  RH  068%=      5-min Rain = 0
KMC4 230418Z 14021KT 16/10 A297 RMK A01 T01560095  RH  067%=      5-min Rain = 0
KMC4 230419Z 15021KT 16/10 A2969 RMK A01 T01560095  RH  067%=      5-min Rain = 0
KMC4 230420Z 15021KT 16/10 A2969 RMK A01 T01560096  RH  067%=      5-min Rain = 0
KMC4 230421Z 14018KT 16/10 A297 RMK A01 T01560097  RH  068%=      5-min Rain = 0
KMC4 230422Z 14021G26KT 16/10 A297 RMK A01 T01550096  RH  068%=      5-min Rain = 0
KMC4 230423Z 15020G25KT 16/10 A297 RMK A01 T01550097  RH  068%=      5-min Rain = 0
KMC4 230424Z 15018KT 16/10 A297 RMK A01 T01550097  RH  068%=      5-min Rain = 0
KMC4 230425Z 14019G24KT 16/10 A297 RMK A01 T01550097  RH  068%=      5-min Rain = 0
KMC4 230426Z 14018KT 16/10 A297 RMK A01 T01550098  RH  069%=      5-min Rain = 0
KMC4 230427Z 14017KT 15/10 A297 RMK A01 T01540098  RH  069%=      5-min Rain = 0
KMC4 230428Z 15017KT 15/10 A297 RMK A01 T01540098  RH  069%=      5-min Rain = 0
KMC4 230429Z 14015KT 15/10 A297 RMK A01 T01540098  RH  069%=      5-min Rain = 0
KMC4 230430Z 15015KT 15/10 A2971 RMK A01 T01530098  RH  069%=      5-min Rain = 0
KMC4 230431Z 15020KT 15/10 A2971 RMK A01 T01530099  RH  070%=      5-min Rain = 0
KMC4 230432Z 15017KT 15/10 A297 RMK A01 T01540100  RH  070%=      5-min Rain = 0
KMC4 230433Z 15014KT 15/10 A2971 RMK A01 T01540100  RH  070%=      5-min Rain = 0
KMC4 230434Z 16017KT 15/10 A2971 RMK A01 T01540100  RH  070%=      5-min Rain = 0
KMC4 230435Z 16017KT 15/10 A2971 RMK A01 T01540101  RH  070%=      5-min Rain = 0
KMC4 230436Z 16012KT 15/10 A2971 RMK A01 T01540101  RH  070%=      5-min Rain = 0
KMC4 230437Z 16013KT 15/10 A2972 RMK A01 T01540100  RH  070%=      5-min Rain = 0
KMC4 230438Z 17010KT 15/10 A2972 RMK A01 T01530100  RH  071%=      5-min Rain = 0
KMC4 230439Z 16012G17KT 15/10 A2972 RMK A01 T01530101  RH  071%=      5-min Rain = 0
KMC4 230440Z 16010KT 15/10 A2972 RMK A01 T01530101  RH  071%=      5-min Rain = 0
KMC4 230441Z 17014G19KT 15/10 A2972 RMK A01 T01520101  RH  071%=      5-min Rain = 0
KMC4 230442Z 16013KT 15/10 A2972 RMK A01 T01510101  RH  072%=      5-min Rain = 0
KMC4 230443Z 17016G24KT 15/10 A2972 RMK A01 T01520101  RH  072%=      5-min Rain = 0
KMC4 230444Z 17017KT 15/10 A2972 RMK A01 T01520102  RH  072%=      5-min Rain = 0
KMC4 230445Z 16016KT 15/10 A2972 RMK A01 T01530103  RH  072%=      5-min Rain = 0
KMC4 230446Z 17015G22KT 15/10 A2972 RMK A01 T01530103  RH  072%=      5-min Rain = 0
KMC4 230447Z 17018KT 15/10 A2972 RMK A01 T01530103  RH  072%=      5-min Rain = 0
KMC4 230448Z 17016KT 15/10 A2972 RMK A01 T01530104  RH  072%=      5-min Rain = 0
KMC4 230449Z 17013KT 15/10 A2973 RMK A01 T01520103  RH  073%=      5-min Rain = 0
KMC4 230450Z 17015KT 15/10 A2973 RMK A01 T01520104  RH  073%=      5-min Rain = 0
KMC4 230451Z 17013KT 15/10 A2972 RMK A01 T01520104  RH  073%=      5-min Rain = 0
KMC4 230452Z 17015KT 15/10 A2972 RMK A01 T01520104  RH  073%=      5-min Rain = 0
KMC4 230453Z 16015KT 15/11 A2972 RMK A01 T01510105  RH  074%=      5-min Rain = 0
KMC4 230454Z 16018G23KT 15/11 A2972 RMK A01 T01520105  RH  074%=      5-min Rain = 0
KMC4 230455Z 16016KT 15/11 A2972 RMK A01 T01510106  RH  074%=      5-min Rain = 0
KMC4 230456Z 16017KT 15/11 A2972 RMK A01 T01520106  RH  074%=      5-min Rain = 0
KMC4 230457Z 16016G21KT 15/11 A2972 RMK A01 T01520106  RH  074%=      5-min Rain = 0
KMC4 230458Z 16021KT 15/11 A2972 RMK A01 T01510106  RH  074%=      5-min Rain = 0
KMC4 230459Z 16022KT 15/11 A2972 RMK A01 T01510107  RH  075%=      5-min Rain = 0
KMC4 230500Z 16018KT 15/11 A2972 RMK A01 T01520108  RH  074%=      5-min Rain = 0
KMC4 230501Z 16017KT 15/11 A2972 RMK A01 T01520107  RH  074%=      5-min Rain = 0
KMC4 230502Z 16020KT 15/11 A2972 RMK A01 T01520107  RH  075%=      5-min Rain = 0
KMC4 230503Z 16018KT 15/11 A2972 RMK A01 T01520107  RH  075%=      5-min Rain = 0
KMC4 230504Z 16019G24KT 15/11 A2972 RMK A01 T01520108  RH  075%=      5-min Rain = 0
KMC4 230505Z 16021KT 15/11 A2972 RMK A01 T01510107  RH  075%=      5-min Rain = 0
KMC4 230506Z 16019KT 15/11 A2972 RMK A01 T01510108  RH  075%=      5-min Rain = 0
KMC4 230507Z 16016KT 15/11 A2972 RMK A01 T01510108  RH  075%=      5-min Rain = 0
KMC4 230508Z 16018G24KT 15/11 A2972 RMK A01 T01510108  RH  076%=      5-min Rain = 0
KMC4 230509Z 16018KT 15/11 A2972 RMK A01 T01510108  RH  076%=      5-min Rain = 0
KMC4 230510Z 16016KT 15/11 A2972 RMK A01 T01510108  RH  076%=      5-min Rain = 0
KMC4 230511Z 16015KT 15/11 A2972 RMK A01 T01510108  RH  076%=      5-min Rain = 0
KMC4 230512Z 16019KT 15/11 A2972 RMK A01 T01500108  RH  076%=      5-min Rain = 0
KMC4 230513Z 16019KT 15/11 A2972 RMK A01 T01500109  RH  076%=      5-min Rain = 0
KMC4 230514Z 16018KT 15/11 A2972 RMK A01 T01500109  RH  076%=      5-min Rain = 0
KMC4 230515Z 16016KT 15/11 A2972 RMK A01 T01500109  RH  076%=      5-min Rain = 0
KMC4 230516Z 16017G22KT 15/11 A2972 RMK A01 T01500109  RH  077%=      5-min Rain = 0
KMC4 230517Z 16017G22KT 15/11 A2972 RMK A01 T01490110  RH  077%=      5-min Rain = 0
KMC4 230518Z 16021KT 15/11 A2972 RMK A01 T01490110  RH  077%=      5-min Rain = 0
KMC4 230519Z 16018G24KT 15/11 A2972 RMK A01 T01490110  RH  077%=      5-min Rain = 0
KMC4 230520Z 16015KT 15/11 A2973 RMK A01 T01500110  RH  077%=      5-min Rain = 0
KMC4 230521Z 16019G25KT 15/11 A2973 RMK A01 T01500111  RH  077%=      5-min Rain = 0
KMC4 230522Z 16021KT 15/11 A2972 RMK A01 T01500111  RH  078%=      5-min Rain = 0
KMC4 230523Z 16019G24KT 15/11 A2973 RMK A01 T01500112  RH  078%=      5-min Rain = 0
KMC4 230524Z 17019KT 15/11 A2973 RMK A01 T01500112  RH  078%=      5-min Rain = 0
KMC4 230525Z 16018KT 15/11 A2973 RMK A01 T01500112  RH  078%=      5-min Rain = 0
KMC4 230526Z 16018G27KT 15/11 A2973 RMK A01 T01500113  RH  078%=      5-min Rain = 0
KMC4 230527Z 17019KT 15/11 A2973 RMK A01 T01500112  RH  078%=      5-min Rain = 0
KMC4 230528Z 16017G22KT 15/11 A2973 RMK A01 T01500112  RH  078%=      5-min Rain = 0
KMC4 230529Z 17018G25KT 15/11 A2973 RMK A01 T01500113  RH  078%=      5-min Rain = 0
KMC4 230530Z 17018KT 15/11 A2973 RMK A01 T01500113  RH  079%=      5-min Rain = 0
KMC4 230531Z 17019G25KT 15/11 A2973 RMK A01 T01500113  RH  079%=      5-min Rain = 0
KMC4 230532Z 17020G26KT 15/11 A2973 RMK A01 T01500113  RH  079%=      5-min Rain = 0
KMC4 230533Z 17021G27KT 15/11 A2973 RMK A01 T01510114  RH  079%=      5-min Rain = 0
KMC4 230534Z 17019KT 15/11 A2973 RMK A01 T01510114  RH  079%=      5-min Rain = 0
KMC4 230535Z 17017G23KT 15/11 A2973 RMK A01 T01510114  RH  079%=      5-min Rain = 0
KMC4 230536Z 17016G21KT 15/11 A2974 RMK A01 T01510114  RH  079%=      5-min Rain = 0
KMC4 230537Z 18016KT 15/11 A2974 RMK A01 T01510114  RH  079%=      5-min Rain = 0
KMC4 230538Z 17019KT 15/11 A2973 RMK A01 T01500114  RH  079%=      5-min Rain = 0
KMC4 230539Z 18020KT 15/11 A2973 RMK A01 T01500114  RH  079%=      5-min Rain = 0
KMC4 230540Z 18017G22KT 15/12 A2973 RMK A01 T01510115  RH  079%=      5-min Rain = 0
KMC4 230541Z 17018G23KT 15/12 A2973 RMK A01 T01510115  RH  079%=      5-min Rain = 0
KMC4 230542Z 17020G25KT 15/12 A2974 RMK A01 T01510115  RH  079%=      5-min Rain = 0
KMC4 230543Z 17020G27KT 15/12 A2974 RMK A01 T01510115  RH  079%=      5-min Rain = 0
KMC4 230544Z 18017KT 15/12 A2974 RMK A01 T01510115  RH  079%=      5-min Rain = 0
KMC4 230545Z 18016KT 15/12 A2975 RMK A01 T01500115  RH  079%=      5-min Rain = 0
KMC4 230546Z 19015G21KT 15/12 A2976 RMK A01 T01510115  RH  079%=      5-min Rain = 0
KMC4 230547Z 23020G30KT 15/12 A2979 RMK A01 T01510115  RH  079%=      5-min Rain = 0
KMC4 230548Z 24023G28KT 15/12 A298 RMK A01 T01510116  RH  079%=      5-min Rain = 0
KMC4 230549Z 25022KT 15/12 A2981 RMK A01 T01520115  RH  079%=      5-min Rain = 0
KMC4 230550Z 25019KT 15/11 A2981 RMK A01 T01520113  RH  077%=      5-min Rain = 0
KMC4 230551Z 25018G23KT 15/11 A2981 RMK A01 T01520110  RH  076%=      5-min Rain = 0
KMC4 230552Z 25020G25KT 15/10 A2982 RMK A01 T01530104  RH  072%=      5-min Rain = 0
KMC4 230553Z 25022KT 16/10 A2981 RMK A01 T01550095  RH  067%=      5-min Rain = 0
KMC4 230554Z 25020KT 16/09 A2982 RMK A01 T01560092  RH  065%=      5-min Rain = 0
KMC4 230555Z 25023KT 16/09 A2982 RMK A01 T01580088  RH  063%=      5-min Rain = 0
KMC4 230556Z 25020G26KT 16/09 A2982 RMK A01 T01580086  RH  062%=      5-min Rain = 0
KMC4 230557Z 25021G27KT 16/09 A2982 RMK A01 T01580086  RH  062%=      5-min Rain = 0
KMC4 230558Z 26026KT 16/06 A2982 RMK A01 T01570059  RH  052%=      5-min Rain = 0
KMC4 230559Z 26022G27KT 15/03 A2982 RMK A01 T01540031  RH  044%=      5-min Rain = 0

Page generated in 0.0353 seconds.